<?xml version="1.0" encoding="UTF-8" standalone="no" ?>
<gpx xmlns="http://www.topografix.com/GPX/1/1" xmlns:xsi="http://www.w3.org/2001/XMLSchema-instance" xsi:schemaLocation="http://www.topografix.com/GPX/1/1 http://www.topografix.com/GPX/1/1/gpx.xsd" version="1.1" creator="VisuGPX - https://www.visugpx.com">
  <metadata>
    <name>Pointe de Roche Fendue</name>
    <desc><![CDATA[grp_trc:]]></desc>
  </metadata>
  <trk>
    <name><![CDATA[24 mars 2022]]></name>
    <cmt><![CDATA[10:06:17]]></cmt>
    <desc><![CDATA[comment ...]]></desc>
    <trkseg>
      <trkpt lat="45.13433" lon="6.36778">
        <ele>2702</ele>
        <time>2022-03-24T09:06:16Z</time>
      </trkpt>
      <trkpt lat="45.13433" lon="6.36778">
        <ele>2702</ele>
        <time>2022-03-24T09:06:17Z</time>
      </trkpt>
      <trkpt lat="45.13436" lon="6.36779">
        <ele>2710</ele>
        <time>2022-03-24T09:13:28Z</time>
      </trkpt>
      <trkpt lat="45.13439" lon="6.36777">
        <ele>2710</ele>
        <time>2022-03-24T09:13:33Z</time>
      </trkpt>
      <trkpt lat="45.1345" lon="6.36768">
        <ele>2709</ele>
        <time>2022-03-24T09:13:54Z</time>
      </trkpt>
      <trkpt lat="45.1346" lon="6.36757">
        <ele>2711</ele>
        <time>2022-03-24T09:14:49Z</time>
      </trkpt>
      <trkpt lat="45.13463" lon="6.36755">
        <ele>2711</ele>
        <time>2022-03-24T09:14:51Z</time>
      </trkpt>
      <trkpt lat="45.13465" lon="6.36753">
        <ele>2712</ele>
        <time>2022-03-24T09:14:54Z</time>
      </trkpt>
      <trkpt lat="45.13468" lon="6.36741">
        <ele>2713</ele>
        <time>2022-03-24T09:15:09Z</time>
      </trkpt>
      <trkpt lat="45.1347" lon="6.36738">
        <ele>2714</ele>
        <time>2022-03-24T09:15:16Z</time>
      </trkpt>
      <trkpt lat="45.13476" lon="6.36728">
        <ele>2714</ele>
        <time>2022-03-24T09:15:30Z</time>
      </trkpt>
      <trkpt lat="45.13479" lon="6.36727">
        <ele>2715</ele>
        <time>2022-03-24T09:15:44Z</time>
      </trkpt>
      <trkpt lat="45.13483" lon="6.36722">
        <ele>2716</ele>
        <time>2022-03-24T09:15:54Z</time>
      </trkpt>
      <trkpt lat="45.13497" lon="6.36715">
        <ele>2720</ele>
        <time>2022-03-24T09:16:19Z</time>
      </trkpt>
      <trkpt lat="45.13499" lon="6.36713">
        <ele>2720</ele>
        <time>2022-03-24T09:16:24Z</time>
      </trkpt>
      <trkpt lat="45.135" lon="6.36718">
        <ele>2721</ele>
        <time>2022-03-24T09:16:32Z</time>
      </trkpt>
      <trkpt lat="45.13501" lon="6.36722">
        <ele>2721</ele>
        <time>2022-03-24T09:16:37Z</time>
      </trkpt>
      <trkpt lat="45.13504" lon="6.36733">
        <ele>2724</ele>
        <time>2022-03-24T09:16:54Z</time>
      </trkpt>
      <trkpt lat="45.13507" lon="6.36735">
        <ele>2725</ele>
        <time>2022-03-24T09:16:58Z</time>
      </trkpt>
      <trkpt lat="45.1351" lon="6.36737">
        <ele>2725</ele>
        <time>2022-03-24T09:17:05Z</time>
      </trkpt>
      <trkpt lat="45.13516" lon="6.36735">
        <ele>2727</ele>
        <time>2022-03-24T09:17:15Z</time>
      </trkpt>
      <trkpt lat="45.13521" lon="6.36731">
        <ele>2729</ele>
        <time>2022-03-24T09:17:35Z</time>
      </trkpt>
      <trkpt lat="45.13527" lon="6.36728">
        <ele>2730</ele>
        <time>2022-03-24T09:17:43Z</time>
      </trkpt>
      <trkpt lat="45.13544" lon="6.3671">
        <ele>2733</ele>
        <time>2022-03-24T09:18:16Z</time>
      </trkpt>
      <trkpt lat="45.13549" lon="6.36704">
        <ele>2734</ele>
        <time>2022-03-24T09:19:37Z</time>
      </trkpt>
      <trkpt lat="45.13555" lon="6.36699">
        <ele>2736</ele>
        <time>2022-03-24T09:19:46Z</time>
      </trkpt>
      <trkpt lat="45.13556" lon="6.36695">
        <ele>2737</ele>
        <time>2022-03-24T09:19:51Z</time>
      </trkpt>
      <trkpt lat="45.13558" lon="6.36692">
        <ele>2737</ele>
        <time>2022-03-24T09:20:40Z</time>
      </trkpt>
      <trkpt lat="45.13575" lon="6.36666">
        <ele>2740</ele>
        <time>2022-03-24T09:21:12Z</time>
      </trkpt>
      <trkpt lat="45.13584" lon="6.36653">
        <ele>2741</ele>
        <time>2022-03-24T09:21:31Z</time>
      </trkpt>
      <trkpt lat="45.13597" lon="6.36636">
        <ele>2743</ele>
        <time>2022-03-24T09:21:57Z</time>
      </trkpt>
      <trkpt lat="45.13607" lon="6.3662">
        <ele>2745</ele>
        <time>2022-03-24T09:22:21Z</time>
      </trkpt>
      <trkpt lat="45.1361" lon="6.36618">
        <ele>2746</ele>
        <time>2022-03-24T09:22:25Z</time>
      </trkpt>
      <trkpt lat="45.13623" lon="6.36593">
        <ele>2749</ele>
        <time>2022-03-24T09:22:57Z</time>
      </trkpt>
      <trkpt lat="45.13635" lon="6.36568">
        <ele>2752</ele>
        <time>2022-03-24T09:23:29Z</time>
      </trkpt>
      <trkpt lat="45.13649" lon="6.36543">
        <ele>2755</ele>
        <time>2022-03-24T09:23:59Z</time>
      </trkpt>
      <trkpt lat="45.13664" lon="6.36521">
        <ele>2757</ele>
        <time>2022-03-24T09:24:27Z</time>
      </trkpt>
      <trkpt lat="45.1367" lon="6.36512">
        <ele>2759</ele>
        <time>2022-03-24T09:24:39Z</time>
      </trkpt>
      <trkpt lat="45.13686" lon="6.36491">
        <ele>2762</ele>
        <time>2022-03-24T09:25:10Z</time>
      </trkpt>
      <trkpt lat="45.13688" lon="6.36488">
        <ele>2762</ele>
        <time>2022-03-24T09:25:14Z</time>
      </trkpt>
      <trkpt lat="45.13697" lon="6.36481">
        <ele>2763</ele>
        <time>2022-03-24T09:25:26Z</time>
      </trkpt>
      <trkpt lat="45.13714" lon="6.36469">
        <ele>2764</ele>
        <time>2022-03-24T09:25:51Z</time>
      </trkpt>
      <trkpt lat="45.13736" lon="6.36455">
        <ele>2766</ele>
        <time>2022-03-24T09:26:22Z</time>
      </trkpt>
      <trkpt lat="45.13758" lon="6.36441">
        <ele>2769</ele>
        <time>2022-03-24T09:26:53Z</time>
      </trkpt>
      <trkpt lat="45.13769" lon="6.36435">
        <ele>2770</ele>
        <time>2022-03-24T09:27:12Z</time>
      </trkpt>
      <trkpt lat="45.13783" lon="6.36426">
        <ele>2775</ele>
        <time>2022-03-24T09:27:34Z</time>
      </trkpt>
      <trkpt lat="45.13786" lon="6.36425">
        <ele>2776</ele>
        <time>2022-03-24T09:27:39Z</time>
      </trkpt>
      <trkpt lat="45.13788" lon="6.36422">
        <ele>2777</ele>
        <time>2022-03-24T09:27:43Z</time>
      </trkpt>
      <trkpt lat="45.13793" lon="6.36417">
        <ele>2780</ele>
        <time>2022-03-24T09:27:55Z</time>
      </trkpt>
      <trkpt lat="45.13796" lon="6.36414">
        <ele>2780</ele>
        <time>2022-03-24T09:31:16Z</time>
      </trkpt>
      <trkpt lat="45.13799" lon="6.36413">
        <ele>2779</ele>
        <time>2022-03-24T09:31:22Z</time>
      </trkpt>
      <trkpt lat="45.13803" lon="6.36411">
        <ele>2779</ele>
        <time>2022-03-24T09:31:27Z</time>
      </trkpt>
      <trkpt lat="45.13804" lon="6.36407">
        <ele>2779</ele>
        <time>2022-03-24T09:31:33Z</time>
      </trkpt>
      <trkpt lat="45.1382" lon="6.36397">
        <ele>2783</ele>
        <time>2022-03-24T09:32:08Z</time>
      </trkpt>
      <trkpt lat="45.13832" lon="6.36387">
        <ele>2787</ele>
        <time>2022-03-24T09:32:42Z</time>
      </trkpt>
      <trkpt lat="45.13845" lon="6.36374">
        <ele>2791</ele>
        <time>2022-03-24T09:33:13Z</time>
      </trkpt>
      <trkpt lat="45.13857" lon="6.36361">
        <ele>2794</ele>
        <time>2022-03-24T09:33:44Z</time>
      </trkpt>
      <trkpt lat="45.13864" lon="6.36348">
        <ele>2797</ele>
        <time>2022-03-24T09:34:08Z</time>
      </trkpt>
      <trkpt lat="45.13874" lon="6.36337">
        <ele>2801</ele>
        <time>2022-03-24T09:34:39Z</time>
      </trkpt>
      <trkpt lat="45.13876" lon="6.36335">
        <ele>2803</ele>
        <time>2022-03-24T09:34:45Z</time>
      </trkpt>
      <trkpt lat="45.13887" lon="6.36321">
        <ele>2804</ele>
        <time>2022-03-24T09:35:15Z</time>
      </trkpt>
      <trkpt lat="45.13898" lon="6.36307">
        <ele>2809</ele>
        <time>2022-03-24T09:35:50Z</time>
      </trkpt>
      <trkpt lat="45.13908" lon="6.36291">
        <ele>2812</ele>
        <time>2022-03-24T09:36:20Z</time>
      </trkpt>
      <trkpt lat="45.13919" lon="6.36271">
        <ele>2815</ele>
        <time>2022-03-24T09:36:56Z</time>
      </trkpt>
      <trkpt lat="45.13926" lon="6.36258">
        <ele>2820</ele>
        <time>2022-03-24T09:37:23Z</time>
      </trkpt>
      <trkpt lat="45.13928" lon="6.36254">
        <ele>2821</ele>
        <time>2022-03-24T09:37:31Z</time>
      </trkpt>
      <trkpt lat="45.1393" lon="6.36247">
        <ele>2825</ele>
        <time>2022-03-24T09:37:44Z</time>
      </trkpt>
      <trkpt lat="45.13938" lon="6.36229">
        <ele>2829</ele>
        <time>2022-03-24T09:38:17Z</time>
      </trkpt>
      <trkpt lat="45.13946" lon="6.3621">
        <ele>2833</ele>
        <time>2022-03-24T09:38:49Z</time>
      </trkpt>
      <trkpt lat="45.13953" lon="6.36193">
        <ele>2837</ele>
        <time>2022-03-24T09:39:24Z</time>
      </trkpt>
      <trkpt lat="45.1396" lon="6.36176">
        <ele>2841</ele>
        <time>2022-03-24T09:39:59Z</time>
      </trkpt>
      <trkpt lat="45.1396" lon="6.36172">
        <ele>2841</ele>
        <time>2022-03-24T09:40:05Z</time>
      </trkpt>
      <trkpt lat="45.13968" lon="6.36155">
        <ele>2845</ele>
        <time>2022-03-24T09:40:36Z</time>
      </trkpt>
      <trkpt lat="45.1397" lon="6.36148">
        <ele>2846</ele>
        <time>2022-03-24T09:40:49Z</time>
      </trkpt>
      <trkpt lat="45.13973" lon="6.36144">
        <ele>2848</ele>
        <time>2022-03-24T09:40:53Z</time>
      </trkpt>
      <trkpt lat="45.1398" lon="6.36125">
        <ele>2853</ele>
        <time>2022-03-24T09:41:28Z</time>
      </trkpt>
      <trkpt lat="45.13981" lon="6.36122">
        <ele>2854</ele>
        <time>2022-03-24T09:41:34Z</time>
      </trkpt>
      <trkpt lat="45.13982" lon="6.36115">
        <ele>2857</ele>
        <time>2022-03-24T09:41:45Z</time>
      </trkpt>
      <trkpt lat="45.13984" lon="6.36111">
        <ele>2857</ele>
        <time>2022-03-24T09:41:50Z</time>
      </trkpt>
      <trkpt lat="45.13989" lon="6.36092">
        <ele>2860</ele>
        <time>2022-03-24T09:42:20Z</time>
      </trkpt>
      <trkpt lat="45.13993" lon="6.36081">
        <ele>2861</ele>
        <time>2022-03-24T09:42:40Z</time>
      </trkpt>
      <trkpt lat="45.13994" lon="6.36085">
        <ele>2863</ele>
        <time>2022-03-24T09:43:12Z</time>
      </trkpt>
      <trkpt lat="45.14002" lon="6.36107">
        <ele>2867</ele>
        <time>2022-03-24T09:43:44Z</time>
      </trkpt>
      <trkpt lat="45.14003" lon="6.36115">
        <ele>2871</ele>
        <time>2022-03-24T09:43:56Z</time>
      </trkpt>
      <trkpt lat="45.14005" lon="6.36123">
        <ele>2872</ele>
        <time>2022-03-24T09:44:09Z</time>
      </trkpt>
      <trkpt lat="45.14007" lon="6.36131">
        <ele>2872</ele>
        <time>2022-03-24T09:44:22Z</time>
      </trkpt>
      <trkpt lat="45.1401" lon="6.36147">
        <ele>2874</ele>
        <time>2022-03-24T09:44:47Z</time>
      </trkpt>
      <trkpt lat="45.14011" lon="6.36151">
        <ele>2875</ele>
        <time>2022-03-24T09:45:05Z</time>
      </trkpt>
      <trkpt lat="45.14013" lon="6.36149">
        <ele>2875</ele>
        <time>2022-03-24T09:45:12Z</time>
      </trkpt>
      <trkpt lat="45.14018" lon="6.36138">
        <ele>2876</ele>
        <time>2022-03-24T09:45:30Z</time>
      </trkpt>
      <trkpt lat="45.14024" lon="6.36124">
        <ele>2880</ele>
        <time>2022-03-24T09:45:55Z</time>
      </trkpt>
      <trkpt lat="45.14029" lon="6.36105">
        <ele>2884</ele>
        <time>2022-03-24T09:46:29Z</time>
      </trkpt>
      <trkpt lat="45.14033" lon="6.36092">
        <ele>2886</ele>
        <time>2022-03-24T09:46:49Z</time>
      </trkpt>
      <trkpt lat="45.14036" lon="6.361">
        <ele>2888</ele>
        <time>2022-03-24T09:47:22Z</time>
      </trkpt>
      <trkpt lat="45.1404" lon="6.36115">
        <ele>2893</ele>
        <time>2022-03-24T09:47:45Z</time>
      </trkpt>
      <trkpt lat="45.14043" lon="6.36133">
        <ele>2896</ele>
        <time>2022-03-24T09:48:15Z</time>
      </trkpt>
      <trkpt lat="45.14045" lon="6.3615">
        <ele>2898</ele>
        <time>2022-03-24T09:48:41Z</time>
      </trkpt>
      <trkpt lat="45.14048" lon="6.36148">
        <ele>2898</ele>
        <time>2022-03-24T09:49:19Z</time>
      </trkpt>
      <trkpt lat="45.14052" lon="6.36138">
        <ele>2901</ele>
        <time>2022-03-24T09:49:35Z</time>
      </trkpt>
      <trkpt lat="45.14059" lon="6.3612">
        <ele>2904</ele>
        <time>2022-03-24T09:50:10Z</time>
      </trkpt>
      <trkpt lat="45.14061" lon="6.36117">
        <ele>2905</ele>
        <time>2022-03-24T09:50:19Z</time>
      </trkpt>
      <trkpt lat="45.14067" lon="6.36098">
        <ele>2909</ele>
        <time>2022-03-24T09:50:51Z</time>
      </trkpt>
      <trkpt lat="45.14069" lon="6.36091">
        <ele>2911</ele>
        <time>2022-03-24T09:51:08Z</time>
      </trkpt>
      <trkpt lat="45.1407" lon="6.36095">
        <ele>2911</ele>
        <time>2022-03-24T09:51:45Z</time>
      </trkpt>
      <trkpt lat="45.14071" lon="6.36098">
        <ele>2911</ele>
        <time>2022-03-24T09:51:49Z</time>
      </trkpt>
      <trkpt lat="45.14073" lon="6.36111">
        <ele>2916</ele>
        <time>2022-03-24T09:52:06Z</time>
      </trkpt>
      <trkpt lat="45.14074" lon="6.36114">
        <ele>2916</ele>
        <time>2022-03-24T09:52:12Z</time>
      </trkpt>
      <trkpt lat="45.14076" lon="6.36132">
        <ele>2919</ele>
        <time>2022-03-24T09:52:48Z</time>
      </trkpt>
      <trkpt lat="45.14076" lon="6.36136">
        <ele>2919</ele>
        <time>2022-03-24T09:53:02Z</time>
      </trkpt>
      <trkpt lat="45.14079" lon="6.36134">
        <ele>2919</ele>
        <time>2022-03-24T09:53:12Z</time>
      </trkpt>
      <trkpt lat="45.14082" lon="6.36127">
        <ele>2922</ele>
        <time>2022-03-24T09:53:31Z</time>
      </trkpt>
      <trkpt lat="45.14085" lon="6.36115">
        <ele>2923</ele>
        <time>2022-03-24T09:53:50Z</time>
      </trkpt>
      <trkpt lat="45.14087" lon="6.36112">
        <ele>2925</ele>
        <time>2022-03-24T09:54:20Z</time>
      </trkpt>
      <trkpt lat="45.14087" lon="6.36108">
        <ele>2925</ele>
        <time>2022-03-24T09:54:25Z</time>
      </trkpt>
      <trkpt lat="45.14094" lon="6.3609">
        <ele>2929</ele>
        <time>2022-03-24T09:55:21Z</time>
      </trkpt>
      <trkpt lat="45.141" lon="6.36068">
        <ele>2935</ele>
        <time>2022-03-24T09:55:55Z</time>
      </trkpt>
      <trkpt lat="45.14102" lon="6.36069">
        <ele>2937</ele>
        <time>2022-03-24T09:56:55Z</time>
      </trkpt>
      <trkpt lat="45.14104" lon="6.36073">
        <ele>2938</ele>
        <time>2022-03-24T09:57:00Z</time>
      </trkpt>
      <trkpt lat="45.14111" lon="6.36097">
        <ele>2942</ele>
        <time>2022-03-24T09:57:35Z</time>
      </trkpt>
      <trkpt lat="45.14112" lon="6.36097">
        <ele>2943</ele>
        <time>2022-03-24T09:58:12Z</time>
      </trkpt>
      <trkpt lat="45.14116" lon="6.36086">
        <ele>2946</ele>
        <time>2022-03-24T09:59:00Z</time>
      </trkpt>
      <trkpt lat="45.14119" lon="6.36074">
        <ele>2948</ele>
        <time>2022-03-24T09:59:36Z</time>
      </trkpt>
      <trkpt lat="45.14121" lon="6.36078">
        <ele>2949</ele>
        <time>2022-03-24T09:59:58Z</time>
      </trkpt>
      <trkpt lat="45.14121" lon="6.36082">
        <ele>2949</ele>
        <time>2022-03-24T10:00:03Z</time>
      </trkpt>
      <trkpt lat="45.14125" lon="6.36102">
        <ele>2955</ele>
        <time>2022-03-24T10:00:47Z</time>
      </trkpt>
      <trkpt lat="45.14126" lon="6.36106">
        <ele>2956</ele>
        <time>2022-03-24T10:00:51Z</time>
      </trkpt>
      <trkpt lat="45.14128" lon="6.3611">
        <ele>2957</ele>
        <time>2022-03-24T10:00:55Z</time>
      </trkpt>
      <trkpt lat="45.14129" lon="6.36122">
        <ele>2959</ele>
        <time>2022-03-24T10:01:14Z</time>
      </trkpt>
      <trkpt lat="45.14131" lon="6.36122">
        <ele>2960</ele>
        <time>2022-03-24T10:01:54Z</time>
      </trkpt>
      <trkpt lat="45.14132" lon="6.36119">
        <ele>2960</ele>
        <time>2022-03-24T10:01:59Z</time>
      </trkpt>
      <trkpt lat="45.14136" lon="6.36113">
        <ele>2963</ele>
        <time>2022-03-24T10:02:23Z</time>
      </trkpt>
      <trkpt lat="45.14139" lon="6.36116">
        <ele>2963</ele>
        <time>2022-03-24T10:02:37Z</time>
      </trkpt>
      <trkpt lat="45.1414" lon="6.36119">
        <ele>2965</ele>
        <time>2022-03-24T10:02:42Z</time>
      </trkpt>
      <trkpt lat="45.14143" lon="6.36121">
        <ele>2969</ele>
        <time>2022-03-24T10:15:37Z</time>
      </trkpt>
      <trkpt lat="45.14143" lon="6.36117">
        <ele>2969</ele>
        <time>2022-03-24T10:16:13Z</time>
      </trkpt>
      <trkpt lat="45.14145" lon="6.36113">
        <ele>2970</ele>
        <time>2022-03-24T10:16:20Z</time>
      </trkpt>
      <trkpt lat="45.14148" lon="6.36097">
        <ele>2972</ele>
        <time>2022-03-24T10:17:42Z</time>
      </trkpt>
      <trkpt lat="45.14148" lon="6.36094">
        <ele>2972</ele>
        <time>2022-03-24T10:17:47Z</time>
      </trkpt>
      <trkpt lat="45.1415" lon="6.3609">
        <ele>2973</ele>
        <time>2022-03-24T10:17:54Z</time>
      </trkpt>
      <trkpt lat="45.14152" lon="6.36087">
        <ele>2973</ele>
        <time>2022-03-24T10:18:01Z</time>
      </trkpt>
      <trkpt lat="45.14152" lon="6.36083">
        <ele>2974</ele>
        <time>2022-03-24T10:18:10Z</time>
      </trkpt>
      <trkpt lat="45.14153" lon="6.36079">
        <ele>2976</ele>
        <time>2022-03-24T10:18:19Z</time>
      </trkpt>
      <trkpt lat="45.14155" lon="6.36077">
        <ele>2977</ele>
        <time>2022-03-24T10:18:26Z</time>
      </trkpt>
      <trkpt lat="45.14159" lon="6.36065">
        <ele>2978</ele>
        <time>2022-03-24T10:18:48Z</time>
      </trkpt>
      <trkpt lat="45.14161" lon="6.36063">
        <ele>2978</ele>
        <time>2022-03-24T10:19:00Z</time>
      </trkpt>
      <trkpt lat="45.14165" lon="6.36052">
        <ele>2983</ele>
        <time>2022-03-24T10:19:23Z</time>
      </trkpt>
      <trkpt lat="45.14169" lon="6.36046">
        <ele>2984</ele>
        <time>2022-03-24T10:19:47Z</time>
      </trkpt>
      <trkpt lat="45.14176" lon="6.36033">
        <ele>2988</ele>
        <time>2022-03-24T10:20:19Z</time>
      </trkpt>
      <trkpt lat="45.14178" lon="6.36025">
        <ele>2990</ele>
        <time>2022-03-24T10:20:38Z</time>
      </trkpt>
      <trkpt lat="45.1418" lon="6.36018">
        <ele>2992</ele>
        <time>2022-03-24T10:20:54Z</time>
      </trkpt>
      <trkpt lat="45.14182" lon="6.36015">
        <ele>2992</ele>
        <time>2022-03-24T10:21:02Z</time>
      </trkpt>
      <trkpt lat="45.14183" lon="6.36011">
        <ele>2993</ele>
        <time>2022-03-24T10:21:09Z</time>
      </trkpt>
      <trkpt lat="45.14184" lon="6.36007">
        <ele>2994</ele>
        <time>2022-03-24T10:21:23Z</time>
      </trkpt>
      <trkpt lat="45.14185" lon="6.36004">
        <ele>2995</ele>
        <time>2022-03-24T10:21:33Z</time>
      </trkpt>
      <trkpt lat="45.14186" lon="6.35996">
        <ele>2999</ele>
        <time>2022-03-24T10:21:56Z</time>
      </trkpt>
      <trkpt lat="45.1419" lon="6.35989">
        <ele>3002</ele>
        <time>2022-03-24T10:22:23Z</time>
      </trkpt>
      <trkpt lat="45.1419" lon="6.35985">
        <ele>3004</ele>
        <time>2022-03-24T10:22:36Z</time>
      </trkpt>
      <trkpt lat="45.14193" lon="6.35978">
        <ele>3009</ele>
        <time>2022-03-24T10:23:03Z</time>
      </trkpt>
      <trkpt lat="45.14196" lon="6.35972">
        <ele>3013</ele>
        <time>2022-03-24T10:23:35Z</time>
      </trkpt>
      <trkpt lat="45.14198" lon="6.35969">
        <ele>3014</ele>
        <time>2022-03-24T10:23:46Z</time>
      </trkpt>
      <trkpt lat="45.14198" lon="6.35965">
        <ele>3015</ele>
        <time>2022-03-24T10:23:56Z</time>
      </trkpt>
      <trkpt lat="45.14199" lon="6.35962">
        <ele>3016</ele>
        <time>2022-03-24T10:24:04Z</time>
      </trkpt>
      <trkpt lat="45.14199" lon="6.35958">
        <ele>3017</ele>
        <time>2022-03-24T10:24:17Z</time>
      </trkpt>
      <trkpt lat="45.14205" lon="6.3595">
        <ele>3019</ele>
        <time>2022-03-24T10:24:43Z</time>
      </trkpt>
      <trkpt lat="45.14207" lon="6.35947">
        <ele>3020</ele>
        <time>2022-03-24T10:24:55Z</time>
      </trkpt>
      <trkpt lat="45.14208" lon="6.35943">
        <ele>3022</ele>
        <time>2022-03-24T10:25:03Z</time>
      </trkpt>
      <trkpt lat="45.14212" lon="6.35937">
        <ele>3024</ele>
        <time>2022-03-24T10:25:24Z</time>
      </trkpt>
      <trkpt lat="45.14214" lon="6.35934">
        <ele>3025</ele>
        <time>2022-03-24T10:25:31Z</time>
      </trkpt>
      <trkpt lat="45.14218" lon="6.35929">
        <ele>3027</ele>
        <time>2022-03-24T10:25:48Z</time>
      </trkpt>
      <trkpt lat="45.14219" lon="6.35925">
        <ele>3029</ele>
        <time>2022-03-24T10:25:58Z</time>
      </trkpt>
      <trkpt lat="45.14221" lon="6.35922">
        <ele>3031</ele>
        <time>2022-03-24T10:26:07Z</time>
      </trkpt>
      <trkpt lat="45.14223" lon="6.35919">
        <ele>3031</ele>
        <time>2022-03-24T10:26:12Z</time>
      </trkpt>
      <trkpt lat="45.14225" lon="6.35916">
        <ele>3034</ele>
        <time>2022-03-24T10:26:19Z</time>
      </trkpt>
      <trkpt lat="45.14225" lon="6.35916">
        <ele>3039</ele>
        <time>2022-03-24T10:31:32Z</time>
      </trkpt>
      <trkpt lat="45.14222" lon="6.35916">
        <ele>3038</ele>
        <time>2022-03-24T10:35:38Z</time>
      </trkpt>
      <trkpt lat="45.14218" lon="6.35928">
        <ele>3036</ele>
        <time>2022-03-24T10:35:52Z</time>
      </trkpt>
      <trkpt lat="45.14213" lon="6.35933">
        <ele>3035</ele>
        <time>2022-03-24T10:36:02Z</time>
      </trkpt>
      <trkpt lat="45.14211" lon="6.35937">
        <ele>3034</ele>
        <time>2022-03-24T10:36:07Z</time>
      </trkpt>
      <trkpt lat="45.14209" lon="6.35939">
        <ele>3031</ele>
        <time>2022-03-24T10:36:14Z</time>
      </trkpt>
      <trkpt lat="45.14203" lon="6.35949">
        <ele>3026</ele>
        <time>2022-03-24T10:36:44Z</time>
      </trkpt>
      <trkpt lat="45.14199" lon="6.35954">
        <ele>3022</ele>
        <time>2022-03-24T10:36:55Z</time>
      </trkpt>
      <trkpt lat="45.14191" lon="6.35977">
        <ele>3017</ele>
        <time>2022-03-24T10:37:34Z</time>
      </trkpt>
      <trkpt lat="45.14187" lon="6.35988">
        <ele>3011</ele>
        <time>2022-03-24T10:38:08Z</time>
      </trkpt>
      <trkpt lat="45.14186" lon="6.35992">
        <ele>3010</ele>
        <time>2022-03-24T10:38:15Z</time>
      </trkpt>
      <trkpt lat="45.14184" lon="6.35995">
        <ele>3008</ele>
        <time>2022-03-24T10:38:25Z</time>
      </trkpt>
      <trkpt lat="45.14184" lon="6.36">
        <ele>3006</ele>
        <time>2022-03-24T10:38:33Z</time>
      </trkpt>
      <trkpt lat="45.14184" lon="6.36004">
        <ele>3005</ele>
        <time>2022-03-24T10:38:40Z</time>
      </trkpt>
      <trkpt lat="45.14179" lon="6.36023">
        <ele>2997</ele>
        <time>2022-03-24T10:39:04Z</time>
      </trkpt>
      <trkpt lat="45.14175" lon="6.3603">
        <ele>2995</ele>
        <time>2022-03-24T10:39:15Z</time>
      </trkpt>
      <trkpt lat="45.14165" lon="6.36052">
        <ele>2990</ele>
        <time>2022-03-24T10:39:47Z</time>
      </trkpt>
      <trkpt lat="45.14163" lon="6.36054">
        <ele>2988</ele>
        <time>2022-03-24T10:39:52Z</time>
      </trkpt>
      <trkpt lat="45.1416" lon="6.36061">
        <ele>2986</ele>
        <time>2022-03-24T10:40:01Z</time>
      </trkpt>
      <trkpt lat="45.14158" lon="6.36065">
        <ele>2986</ele>
        <time>2022-03-24T10:40:06Z</time>
      </trkpt>
      <trkpt lat="45.14157" lon="6.36068">
        <ele>2984</ele>
        <time>2022-03-24T10:40:11Z</time>
      </trkpt>
      <trkpt lat="45.1415" lon="6.36082">
        <ele>2979</ele>
        <time>2022-03-24T10:40:32Z</time>
      </trkpt>
      <trkpt lat="45.1415" lon="6.36087">
        <ele>2979</ele>
        <time>2022-03-24T10:40:39Z</time>
      </trkpt>
      <trkpt lat="45.14148" lon="6.3609">
        <ele>2978</ele>
        <time>2022-03-24T10:40:44Z</time>
      </trkpt>
      <trkpt lat="45.14143" lon="6.3611">
        <ele>2973</ele>
        <time>2022-03-24T10:41:07Z</time>
      </trkpt>
      <trkpt lat="45.14141" lon="6.36118">
        <ele>2971</ele>
        <time>2022-03-24T10:41:18Z</time>
      </trkpt>
      <trkpt lat="45.14138" lon="6.36116">
        <ele>2968</ele>
        <time>2022-03-24T10:51:57Z</time>
      </trkpt>
      <trkpt lat="45.14137" lon="6.36112">
        <ele>2968</ele>
        <time>2022-03-24T10:52:09Z</time>
      </trkpt>
      <trkpt lat="45.14135" lon="6.36113">
        <ele>2968</ele>
        <time>2022-03-24T10:52:11Z</time>
      </trkpt>
      <trkpt lat="45.14133" lon="6.36116">
        <ele>2967</ele>
        <time>2022-03-24T10:52:14Z</time>
      </trkpt>
      <trkpt lat="45.1413" lon="6.36116">
        <ele>2966</ele>
        <time>2022-03-24T10:52:18Z</time>
      </trkpt>
      <trkpt lat="45.14124" lon="6.36089">
        <ele>2966</ele>
        <time>2022-03-24T10:53:03Z</time>
      </trkpt>
      <trkpt lat="45.14121" lon="6.36081">
        <ele>2966</ele>
        <time>2022-03-24T10:53:07Z</time>
      </trkpt>
      <trkpt lat="45.14117" lon="6.36081">
        <ele>2962</ele>
        <time>2022-03-24T10:53:09Z</time>
      </trkpt>
      <trkpt lat="45.14111" lon="6.36094">
        <ele>2955</ele>
        <time>2022-03-24T10:53:12Z</time>
      </trkpt>
      <trkpt lat="45.14109" lon="6.36099">
        <ele>2954</ele>
        <time>2022-03-24T10:53:14Z</time>
      </trkpt>
      <trkpt lat="45.14106" lon="6.36098">
        <ele>2953</ele>
        <time>2022-03-24T10:53:16Z</time>
      </trkpt>
      <trkpt lat="45.14102" lon="6.36099">
        <ele>2952</ele>
        <time>2022-03-24T10:53:18Z</time>
      </trkpt>
      <trkpt lat="45.14099" lon="6.36094">
        <ele>2951</ele>
        <time>2022-03-24T10:53:20Z</time>
      </trkpt>
      <trkpt lat="45.14095" lon="6.36097">
        <ele>2951</ele>
        <time>2022-03-24T10:53:22Z</time>
      </trkpt>
      <trkpt lat="45.14092" lon="6.36095">
        <ele>2951</ele>
        <time>2022-03-24T10:53:24Z</time>
      </trkpt>
      <trkpt lat="45.14088" lon="6.36098">
        <ele>2951</ele>
        <time>2022-03-24T10:53:26Z</time>
      </trkpt>
      <trkpt lat="45.14084" lon="6.36095">
        <ele>2951</ele>
        <time>2022-03-24T10:53:28Z</time>
      </trkpt>
      <trkpt lat="45.1408" lon="6.36096">
        <ele>2951</ele>
        <time>2022-03-24T10:53:30Z</time>
      </trkpt>
      <trkpt lat="45.14074" lon="6.36094">
        <ele>2948</ele>
        <time>2022-03-24T10:53:33Z</time>
      </trkpt>
      <trkpt lat="45.14067" lon="6.36089">
        <ele>2944</ele>
        <time>2022-03-24T10:53:36Z</time>
      </trkpt>
      <trkpt lat="45.14062" lon="6.36093">
        <ele>2941</ele>
        <time>2022-03-24T10:53:38Z</time>
      </trkpt>
      <trkpt lat="45.14057" lon="6.36096">
        <ele>2934</ele>
        <time>2022-03-24T10:53:42Z</time>
      </trkpt>
      <trkpt lat="45.14052" lon="6.36092">
        <ele>2931</ele>
        <time>2022-03-24T10:53:44Z</time>
      </trkpt>
      <trkpt lat="45.14048" lon="6.36091">
        <ele>2927</ele>
        <time>2022-03-24T10:53:46Z</time>
      </trkpt>
      <trkpt lat="45.14042" lon="6.36087">
        <ele>2924</ele>
        <time>2022-03-24T10:53:49Z</time>
      </trkpt>
      <trkpt lat="45.14041" lon="6.36093">
        <ele>2922</ele>
        <time>2022-03-24T10:53:53Z</time>
      </trkpt>
      <trkpt lat="45.14036" lon="6.3609">
        <ele>2919</ele>
        <time>2022-03-24T10:54:36Z</time>
      </trkpt>
      <trkpt lat="45.14026" lon="6.3609">
        <ele>2912</ele>
        <time>2022-03-24T10:54:39Z</time>
      </trkpt>
      <trkpt lat="45.14023" lon="6.36094">
        <ele>2908</ele>
        <time>2022-03-24T10:54:41Z</time>
      </trkpt>
      <trkpt lat="45.14016" lon="6.36092">
        <ele>2904</ele>
        <time>2022-03-24T10:54:43Z</time>
      </trkpt>
      <trkpt lat="45.14011" lon="6.36089">
        <ele>2902</ele>
        <time>2022-03-24T10:54:45Z</time>
      </trkpt>
      <trkpt lat="45.14005" lon="6.36087">
        <ele>2899</ele>
        <time>2022-03-24T10:54:47Z</time>
      </trkpt>
      <trkpt lat="45.14001" lon="6.36093">
        <ele>2898</ele>
        <time>2022-03-24T10:54:49Z</time>
      </trkpt>
      <trkpt lat="45.13995" lon="6.36096">
        <ele>2895</ele>
        <time>2022-03-24T10:54:51Z</time>
      </trkpt>
      <trkpt lat="45.13991" lon="6.36091">
        <ele>2894</ele>
        <time>2022-03-24T10:54:53Z</time>
      </trkpt>
      <trkpt lat="45.13982" lon="6.3609">
        <ele>2889</ele>
        <time>2022-03-24T10:54:57Z</time>
      </trkpt>
      <trkpt lat="45.13977" lon="6.36087">
        <ele>2887</ele>
        <time>2022-03-24T10:55:00Z</time>
      </trkpt>
      <trkpt lat="45.13971" lon="6.36088">
        <ele>2883</ele>
        <time>2022-03-24T10:55:01Z</time>
      </trkpt>
      <trkpt lat="45.13964" lon="6.36093">
        <ele>2882</ele>
        <time>2022-03-24T10:55:03Z</time>
      </trkpt>
      <trkpt lat="45.1396" lon="6.36095">
        <ele>2880</ele>
        <time>2022-03-24T10:55:05Z</time>
      </trkpt>
      <trkpt lat="45.13955" lon="6.36097">
        <ele>2877</ele>
        <time>2022-03-24T10:55:07Z</time>
      </trkpt>
      <trkpt lat="45.13949" lon="6.36101">
        <ele>2876</ele>
        <time>2022-03-24T10:55:09Z</time>
      </trkpt>
      <trkpt lat="45.13938" lon="6.36108">
        <ele>2872</ele>
        <time>2022-03-24T10:55:12Z</time>
      </trkpt>
      <trkpt lat="45.13935" lon="6.36111">
        <ele>2871</ele>
        <time>2022-03-24T10:55:13Z</time>
      </trkpt>
      <trkpt lat="45.13931" lon="6.36113">
        <ele>2870</ele>
        <time>2022-03-24T10:55:14Z</time>
      </trkpt>
      <trkpt lat="45.13925" lon="6.36115">
        <ele>2869</ele>
        <time>2022-03-24T10:55:15Z</time>
      </trkpt>
      <trkpt lat="45.13925" lon="6.36126">
        <ele>2855</ele>
        <time>2022-03-24T10:55:16Z</time>
      </trkpt>
      <trkpt lat="45.13921" lon="6.36128">
        <ele>2850</ele>
        <time>2022-03-24T10:55:17Z</time>
      </trkpt>
      <trkpt lat="45.13918" lon="6.36132">
        <ele>2844</ele>
        <time>2022-03-24T10:55:18Z</time>
      </trkpt>
      <trkpt lat="45.13914" lon="6.36135">
        <ele>2842</ele>
        <time>2022-03-24T10:55:19Z</time>
      </trkpt>
      <trkpt lat="45.13909" lon="6.36142">
        <ele>2837</ele>
        <time>2022-03-24T10:55:21Z</time>
      </trkpt>
      <trkpt lat="45.13906" lon="6.36146">
        <ele>2834</ele>
        <time>2022-03-24T10:55:22Z</time>
      </trkpt>
      <trkpt lat="45.13903" lon="6.3615">
        <ele>2832</ele>
        <time>2022-03-24T10:55:23Z</time>
      </trkpt>
      <trkpt lat="45.13901" lon="6.36155">
        <ele>2831</ele>
        <time>2022-03-24T10:55:24Z</time>
      </trkpt>
      <trkpt lat="45.13898" lon="6.36161">
        <ele>2827</ele>
        <time>2022-03-24T10:55:25Z</time>
      </trkpt>
      <trkpt lat="45.13896" lon="6.36167">
        <ele>2826</ele>
        <time>2022-03-24T10:55:26Z</time>
      </trkpt>
      <trkpt lat="45.13895" lon="6.36183">
        <ele>2811</ele>
        <time>2022-03-24T10:58:23Z</time>
      </trkpt>
      <trkpt lat="45.13864" lon="6.36305">
        <ele>2804</ele>
        <time>2022-03-24T10:58:46Z</time>
      </trkpt>
      <trkpt lat="45.13831" lon="6.36386">
        <ele>2798</ele>
        <time>2022-03-24T10:58:58Z</time>
      </trkpt>
      <trkpt lat="45.13778" lon="6.36485">
        <ele>2792</ele>
        <time>2022-03-24T10:59:12Z</time>
      </trkpt>
      <trkpt lat="45.13763" lon="6.36492">
        <ele>2790</ele>
        <time>2022-03-24T10:59:14Z</time>
      </trkpt>
      <trkpt lat="45.13752" lon="6.36493">
        <ele>2787</ele>
        <time>2022-03-24T10:59:15Z</time>
      </trkpt>
      <trkpt lat="45.13745" lon="6.365">
        <ele>2784</ele>
        <time>2022-03-24T10:59:16Z</time>
      </trkpt>
      <trkpt lat="45.13729" lon="6.36514">
        <ele>2783</ele>
        <time>2022-03-24T10:59:19Z</time>
      </trkpt>
      <trkpt lat="45.13723" lon="6.36516">
        <ele>2782</ele>
        <time>2022-03-24T10:59:20Z</time>
      </trkpt>
      <trkpt lat="45.13714" lon="6.36524">
        <ele>2781</ele>
        <time>2022-03-24T10:59:22Z</time>
      </trkpt>
      <trkpt lat="45.1371" lon="6.36528">
        <ele>2780</ele>
        <time>2022-03-24T10:59:23Z</time>
      </trkpt>
      <trkpt lat="45.13698" lon="6.36528">
        <ele>2778</ele>
        <time>2022-03-24T10:59:25Z</time>
      </trkpt>
      <trkpt lat="45.13692" lon="6.3653">
        <ele>2778</ele>
        <time>2022-03-24T10:59:26Z</time>
      </trkpt>
      <trkpt lat="45.13674" lon="6.36557">
        <ele>2774</ele>
        <time>2022-03-24T10:59:30Z</time>
      </trkpt>
      <trkpt lat="45.13669" lon="6.36562">
        <ele>2773</ele>
        <time>2022-03-24T10:59:31Z</time>
      </trkpt>
      <trkpt lat="45.13664" lon="6.36563">
        <ele>2772</ele>
        <time>2022-03-24T10:59:32Z</time>
      </trkpt>
      <trkpt lat="45.1366" lon="6.36555">
        <ele>2770</ele>
        <time>2022-03-24T10:59:34Z</time>
      </trkpt>
      <trkpt lat="45.13659" lon="6.36559">
        <ele>2767</ele>
        <time>2022-03-24T10:59:37Z</time>
      </trkpt>
      <trkpt lat="45.13658" lon="6.36563">
        <ele>2763</ele>
        <time>2022-03-24T10:59:52Z</time>
      </trkpt>
      <trkpt lat="45.13654" lon="6.36562">
        <ele>2763</ele>
        <time>2022-03-24T10:59:56Z</time>
      </trkpt>
      <trkpt lat="45.13602" lon="6.36561">
        <ele>2759</ele>
        <time>2022-03-24T11:00:06Z</time>
      </trkpt>
      <trkpt lat="45.13598" lon="6.36563">
        <ele>2759</ele>
        <time>2022-03-24T11:00:07Z</time>
      </trkpt>
      <trkpt lat="45.13583" lon="6.3658">
        <ele>2757</ele>
        <time>2022-03-24T11:00:12Z</time>
      </trkpt>
      <trkpt lat="45.1357" lon="6.36605">
        <ele>2755</ele>
        <time>2022-03-24T11:00:19Z</time>
      </trkpt>
      <trkpt lat="45.13558" lon="6.36619">
        <ele>2753</ele>
        <time>2022-03-24T11:00:28Z</time>
      </trkpt>
      <trkpt lat="45.13557" lon="6.36624">
        <ele>2752</ele>
        <time>2022-03-24T11:00:30Z</time>
      </trkpt>
      <trkpt lat="45.13549" lon="6.36633">
        <ele>2751</ele>
        <time>2022-03-24T11:00:38Z</time>
      </trkpt>
      <trkpt lat="45.13543" lon="6.36645">
        <ele>2750</ele>
        <time>2022-03-24T11:00:41Z</time>
      </trkpt>
      <trkpt lat="45.13541" lon="6.36655">
        <ele>2750</ele>
        <time>2022-03-24T11:00:43Z</time>
      </trkpt>
      <trkpt lat="45.13542" lon="6.36659">
        <ele>2749</ele>
        <time>2022-03-24T11:00:44Z</time>
      </trkpt>
      <trkpt lat="45.13541" lon="6.36664">
        <ele>2749</ele>
        <time>2022-03-24T11:00:46Z</time>
      </trkpt>
      <trkpt lat="45.13539" lon="6.36661">
        <ele>2749</ele>
        <time>2022-03-24T11:00:48Z</time>
      </trkpt>
      <trkpt lat="45.13532" lon="6.36637">
        <ele>2746</ele>
        <time>2022-03-24T11:00:53Z</time>
      </trkpt>
      <trkpt lat="45.1353" lon="6.36632">
        <ele>2744</ele>
        <time>2022-03-24T11:00:54Z</time>
      </trkpt>
      <trkpt lat="45.13523" lon="6.36635">
        <ele>2743</ele>
        <time>2022-03-24T11:00:56Z</time>
      </trkpt>
      <trkpt lat="45.13502" lon="6.36667">
        <ele>2736</ele>
        <time>2022-03-24T11:01:01Z</time>
      </trkpt>
      <trkpt lat="45.13497" lon="6.36672">
        <ele>2736</ele>
        <time>2022-03-24T11:01:02Z</time>
      </trkpt>
      <trkpt lat="45.1349" lon="6.36672">
        <ele>2735</ele>
        <time>2022-03-24T11:01:03Z</time>
      </trkpt>
      <trkpt lat="45.13476" lon="6.36677">
        <ele>2732</ele>
        <time>2022-03-24T11:01:05Z</time>
      </trkpt>
      <trkpt lat="45.1347" lon="6.36681">
        <ele>2730</ele>
        <time>2022-03-24T11:01:06Z</time>
      </trkpt>
      <trkpt lat="45.13462" lon="6.36695">
        <ele>2729</ele>
        <time>2022-03-24T11:01:08Z</time>
      </trkpt>
      <trkpt lat="45.13458" lon="6.36701">
        <ele>2727</ele>
        <time>2022-03-24T11:01:09Z</time>
      </trkpt>
      <trkpt lat="45.13455" lon="6.36707">
        <ele>2727</ele>
        <time>2022-03-24T11:01:10Z</time>
      </trkpt>
      <trkpt lat="45.13456" lon="6.36722">
        <ele>2725</ele>
        <time>2022-03-24T11:01:12Z</time>
      </trkpt>
      <trkpt lat="45.13457" lon="6.36728">
        <ele>2724</ele>
        <time>2022-03-24T11:01:13Z</time>
      </trkpt>
      <trkpt lat="45.13455" lon="6.36737">
        <ele>2722</ele>
        <time>2022-03-24T11:01:15Z</time>
      </trkpt>
      <trkpt lat="45.13447" lon="6.36751">
        <ele>2718</ele>
        <time>2022-03-24T11:01:19Z</time>
      </trkpt>
      <trkpt lat="45.13445" lon="6.36763">
        <ele>2716</ele>
        <time>2022-03-24T11:01:21Z</time>
      </trkpt>
      <trkpt lat="45.13445" lon="6.36769">
        <ele>2715</ele>
        <time>2022-03-24T11:01:22Z</time>
      </trkpt>
      <trkpt lat="45.1344" lon="6.36777">
        <ele>2710</ele>
        <time>2022-03-24T11:01:33Z</time>
      </trkpt>
      <trkpt lat="45.13437" lon="6.3678">
        <ele>2707</ele>
        <time>2022-03-24T11:01:35Z</time>
      </trkpt>
      <trkpt lat="45.13434" lon="6.36778">
        <ele>2706</ele>
        <time>2022-03-24T11:01:37Z</time>
      </trkpt>
      <trkpt lat="45.13433" lon="6.3678">
        <ele>2704</ele>
        <time>2022-03-24T11:06:35Z</time>
      </trkpt>
      <trkpt lat="45.13437" lon="6.36781">
        <ele>2708</ele>
        <time>2022-03-24T11:36:53Z</time>
      </trkpt>
      <trkpt lat="45.13438" lon="6.36787">
        <ele>2707</ele>
        <time>2022-03-24T11:46:13Z</time>
      </trkpt>
      <trkpt lat="45.13439" lon="6.36791">
        <ele>2707</ele>
        <time>2022-03-24T11:46:14Z</time>
      </trkpt>
      <trkpt lat="45.13432" lon="6.36859">
        <ele>2703</ele>
        <time>2022-03-24T11:46:23Z</time>
      </trkpt>
      <trkpt lat="45.13414" lon="6.36917">
        <ele>2700</ele>
        <time>2022-03-24T11:46:35Z</time>
      </trkpt>
      <trkpt lat="45.13411" lon="6.3694">
        <ele>2699</ele>
        <time>2022-03-24T11:46:41Z</time>
      </trkpt>
      <trkpt lat="45.13412" lon="6.36961">
        <ele>2697</ele>
        <time>2022-03-24T11:46:47Z</time>
      </trkpt>
      <trkpt lat="45.13415" lon="6.36981">
        <ele>2695</ele>
        <time>2022-03-24T11:46:57Z</time>
      </trkpt>
      <trkpt lat="45.13416" lon="6.36984">
        <ele>2694</ele>
        <time>2022-03-24T11:47:00Z</time>
      </trkpt>
      <trkpt lat="45.13457" lon="6.36998">
        <ele>2694</ele>
        <time>2022-03-24T11:47:37Z</time>
      </trkpt>
      <trkpt lat="45.13465" lon="6.37023">
        <ele>2694</ele>
        <time>2022-03-24T11:47:56Z</time>
      </trkpt>
      <trkpt lat="45.13461" lon="6.37081">
        <ele>2693</ele>
        <time>2022-03-24T11:48:24Z</time>
      </trkpt>
      <trkpt lat="45.13451" lon="6.37154">
        <ele>2692</ele>
        <time>2022-03-24T11:48:55Z</time>
      </trkpt>
      <trkpt lat="45.1345" lon="6.37159">
        <ele>2692</ele>
        <time>2022-03-24T11:48:57Z</time>
      </trkpt>
      <trkpt lat="45.13449" lon="6.37164">
        <ele>2691</ele>
        <time>2022-03-24T11:49:02Z</time>
      </trkpt>
      <trkpt lat="45.13444" lon="6.37186">
        <ele>2692</ele>
        <time>2022-03-24T11:49:10Z</time>
      </trkpt>
      <trkpt lat="45.13439" lon="6.37198">
        <ele>2691</ele>
        <time>2022-03-24T11:49:16Z</time>
      </trkpt>
      <trkpt lat="45.13434" lon="6.37208">
        <ele>2691</ele>
        <time>2022-03-24T11:49:20Z</time>
      </trkpt>
      <trkpt lat="45.13432" lon="6.37212">
        <ele>2691</ele>
        <time>2022-03-24T11:49:23Z</time>
      </trkpt>
      <trkpt lat="45.13429" lon="6.37225">
        <ele>2691</ele>
        <time>2022-03-24T11:50:17Z</time>
      </trkpt>
      <trkpt lat="45.134" lon="6.37358">
        <ele>2685</ele>
        <time>2022-03-24T11:50:44Z</time>
      </trkpt>
      <trkpt lat="45.13399" lon="6.37376">
        <ele>2683</ele>
        <time>2022-03-24T11:50:59Z</time>
      </trkpt>
      <trkpt lat="45.13403" lon="6.3742">
        <ele>2681</ele>
        <time>2022-03-24T11:51:09Z</time>
      </trkpt>
      <trkpt lat="45.13402" lon="6.37488">
        <ele>2673</ele>
        <time>2022-03-24T11:51:39Z</time>
      </trkpt>
      <trkpt lat="45.13393" lon="6.37521">
        <ele>2672</ele>
        <time>2022-03-24T11:51:45Z</time>
      </trkpt>
      <trkpt lat="45.13366" lon="6.3757">
        <ele>2671</ele>
        <time>2022-03-24T11:51:55Z</time>
      </trkpt>
      <trkpt lat="45.13363" lon="6.37574">
        <ele>2671</ele>
        <time>2022-03-24T11:51:56Z</time>
      </trkpt>
      <trkpt lat="45.13352" lon="6.37582">
        <ele>2670</ele>
        <time>2022-03-24T11:52:00Z</time>
      </trkpt>
      <trkpt lat="45.1331" lon="6.37628">
        <ele>2665</ele>
        <time>2022-03-24T11:52:12Z</time>
      </trkpt>
      <trkpt lat="45.13261" lon="6.37659">
        <ele>2661</ele>
        <time>2022-03-24T11:52:28Z</time>
      </trkpt>
      <trkpt lat="45.13175" lon="6.37745">
        <ele>2648</ele>
        <time>2022-03-24T11:52:59Z</time>
      </trkpt>
      <trkpt lat="45.13164" lon="6.37758">
        <ele>2648</ele>
        <time>2022-03-24T11:53:07Z</time>
      </trkpt>
      <trkpt lat="45.13164" lon="6.37763">
        <ele>2645</ele>
        <time>2022-03-24T11:53:21Z</time>
      </trkpt>
      <trkpt lat="45.13162" lon="6.37767">
        <ele>2644</ele>
        <time>2022-03-24T11:53:23Z</time>
      </trkpt>
      <trkpt lat="45.13144" lon="6.37809">
        <ele>2646</ele>
        <time>2022-03-24T11:53:47Z</time>
      </trkpt>
      <trkpt lat="45.13136" lon="6.37859">
        <ele>2644</ele>
        <time>2022-03-24T11:55:17Z</time>
      </trkpt>
      <trkpt lat="45.13134" lon="6.37906">
        <ele>2640</ele>
        <time>2022-03-24T11:55:32Z</time>
      </trkpt>
      <trkpt lat="45.13131" lon="6.37936">
        <ele>2639</ele>
        <time>2022-03-24T11:55:38Z</time>
      </trkpt>
      <trkpt lat="45.13128" lon="6.37989">
        <ele>2635</ele>
        <time>2022-03-24T11:55:48Z</time>
      </trkpt>
      <trkpt lat="45.13127" lon="6.37993">
        <ele>2634</ele>
        <time>2022-03-24T11:55:50Z</time>
      </trkpt>
      <trkpt lat="45.13133" lon="6.38016">
        <ele>2631</ele>
        <time>2022-03-24T11:55:58Z</time>
      </trkpt>
      <trkpt lat="45.13131" lon="6.38058">
        <ele>2628</ele>
        <time>2022-03-24T11:56:03Z</time>
      </trkpt>
      <trkpt lat="45.1312" lon="6.38112">
        <ele>2625</ele>
        <time>2022-03-24T11:56:13Z</time>
      </trkpt>
      <trkpt lat="45.13118" lon="6.38195">
        <ele>2615</ele>
        <time>2022-03-24T11:56:30Z</time>
      </trkpt>
      <trkpt lat="45.13116" lon="6.38211">
        <ele>2613</ele>
        <time>2022-03-24T11:56:36Z</time>
      </trkpt>
      <trkpt lat="45.13092" lon="6.38256">
        <ele>2607</ele>
        <time>2022-03-24T11:56:44Z</time>
      </trkpt>
      <trkpt lat="45.13081" lon="6.38269">
        <ele>2607</ele>
        <time>2022-03-24T11:56:47Z</time>
      </trkpt>
      <trkpt lat="45.13063" lon="6.38301">
        <ele>2603</ele>
        <time>2022-03-24T11:56:57Z</time>
      </trkpt>
      <trkpt lat="45.13043" lon="6.38324">
        <ele>2600</ele>
        <time>2022-03-24T11:57:04Z</time>
      </trkpt>
      <trkpt lat="45.13034" lon="6.38341">
        <ele>2598</ele>
        <time>2022-03-24T11:57:08Z</time>
      </trkpt>
      <trkpt lat="45.13032" lon="6.38351">
        <ele>2597</ele>
        <time>2022-03-24T11:57:11Z</time>
      </trkpt>
      <trkpt lat="45.13032" lon="6.38355">
        <ele>2592</ele>
        <time>2022-03-24T11:59:31Z</time>
      </trkpt>
      <trkpt lat="45.13013" lon="6.38488">
        <ele>2584</ele>
        <time>2022-03-24T11:59:52Z</time>
      </trkpt>
      <trkpt lat="45.13012" lon="6.3865">
        <ele>2572</ele>
        <time>2022-03-24T12:00:20Z</time>
      </trkpt>
      <trkpt lat="45.13012" lon="6.38654">
        <ele>2570</ele>
        <time>2022-03-24T12:01:24Z</time>
      </trkpt>
      <trkpt lat="45.13012" lon="6.38659">
        <ele>2570</ele>
        <time>2022-03-24T12:01:27Z</time>
      </trkpt>
      <trkpt lat="45.13012" lon="6.38672">
        <ele>2569</ele>
        <time>2022-03-24T12:01:30Z</time>
      </trkpt>
      <trkpt lat="45.13012" lon="6.38677">
        <ele>2568</ele>
        <time>2022-03-24T12:01:31Z</time>
      </trkpt>
      <trkpt lat="45.13013" lon="6.38682">
        <ele>2568</ele>
        <time>2022-03-24T12:01:32Z</time>
      </trkpt>
      <trkpt lat="45.13011" lon="6.38686">
        <ele>2568</ele>
        <time>2022-03-24T12:01:33Z</time>
      </trkpt>
      <trkpt lat="45.13006" lon="6.38686">
        <ele>2567</ele>
        <time>2022-03-24T12:01:34Z</time>
      </trkpt>
      <trkpt lat="45.13" lon="6.38685">
        <ele>2567</ele>
        <time>2022-03-24T12:01:35Z</time>
      </trkpt>
      <trkpt lat="45.12996" lon="6.38688">
        <ele>2566</ele>
        <time>2022-03-24T12:01:36Z</time>
      </trkpt>
      <trkpt lat="45.12996" lon="6.38695">
        <ele>2566</ele>
        <time>2022-03-24T12:01:37Z</time>
      </trkpt>
      <trkpt lat="45.12998" lon="6.38703">
        <ele>2565</ele>
        <time>2022-03-24T12:01:38Z</time>
      </trkpt>
      <trkpt lat="45.13" lon="6.38711">
        <ele>2565</ele>
        <time>2022-03-24T12:01:39Z</time>
      </trkpt>
      <trkpt lat="45.12998" lon="6.38714">
        <ele>2565</ele>
        <time>2022-03-24T12:01:40Z</time>
      </trkpt>
      <trkpt lat="45.12986" lon="6.38711">
        <ele>2563</ele>
        <time>2022-03-24T12:01:42Z</time>
      </trkpt>
      <trkpt lat="45.12981" lon="6.38713">
        <ele>2562</ele>
        <time>2022-03-24T12:01:43Z</time>
      </trkpt>
      <trkpt lat="45.12979" lon="6.38719">
        <ele>2562</ele>
        <time>2022-03-24T12:01:44Z</time>
      </trkpt>
      <trkpt lat="45.12994" lon="6.38757">
        <ele>2557</ele>
        <time>2022-03-24T12:01:50Z</time>
      </trkpt>
      <trkpt lat="45.12999" lon="6.38776">
        <ele>2554</ele>
        <time>2022-03-24T12:01:54Z</time>
      </trkpt>
      <trkpt lat="45.13001" lon="6.38781">
        <ele>2552</ele>
        <time>2022-03-24T12:01:56Z</time>
      </trkpt>
      <trkpt lat="45.13007" lon="6.38791">
        <ele>2550</ele>
        <time>2022-03-24T12:01:58Z</time>
      </trkpt>
      <trkpt lat="45.1301" lon="6.38799">
        <ele>2550</ele>
        <time>2022-03-24T12:01:59Z</time>
      </trkpt>
      <trkpt lat="45.13012" lon="6.38809">
        <ele>2548</ele>
        <time>2022-03-24T12:02:00Z</time>
      </trkpt>
      <trkpt lat="45.13012" lon="6.38819">
        <ele>2547</ele>
        <time>2022-03-24T12:02:01Z</time>
      </trkpt>
      <trkpt lat="45.13009" lon="6.38835">
        <ele>2545</ele>
        <time>2022-03-24T12:02:03Z</time>
      </trkpt>
      <trkpt lat="45.13007" lon="6.38842">
        <ele>2544</ele>
        <time>2022-03-24T12:02:04Z</time>
      </trkpt>
      <trkpt lat="45.13006" lon="6.38847">
        <ele>2543</ele>
        <time>2022-03-24T12:02:05Z</time>
      </trkpt>
      <trkpt lat="45.13002" lon="6.38849">
        <ele>2542</ele>
        <time>2022-03-24T12:02:06Z</time>
      </trkpt>
      <trkpt lat="45.12992" lon="6.3884">
        <ele>2540</ele>
        <time>2022-03-24T12:02:08Z</time>
      </trkpt>
      <trkpt lat="45.12986" lon="6.38837">
        <ele>2539</ele>
        <time>2022-03-24T12:02:09Z</time>
      </trkpt>
      <trkpt lat="45.12981" lon="6.38839">
        <ele>2538</ele>
        <time>2022-03-24T12:02:10Z</time>
      </trkpt>
      <trkpt lat="45.12979" lon="6.38846">
        <ele>2537</ele>
        <time>2022-03-24T12:02:11Z</time>
      </trkpt>
      <trkpt lat="45.12977" lon="6.38853">
        <ele>2536</ele>
        <time>2022-03-24T12:02:12Z</time>
      </trkpt>
      <trkpt lat="45.12973" lon="6.38856">
        <ele>2536</ele>
        <time>2022-03-24T12:02:13Z</time>
      </trkpt>
      <trkpt lat="45.12967" lon="6.38856">
        <ele>2534</ele>
        <time>2022-03-24T12:02:14Z</time>
      </trkpt>
      <trkpt lat="45.12962" lon="6.38858">
        <ele>2533</ele>
        <time>2022-03-24T12:02:15Z</time>
      </trkpt>
      <trkpt lat="45.12958" lon="6.38863">
        <ele>2532</ele>
        <time>2022-03-24T12:02:16Z</time>
      </trkpt>
      <trkpt lat="45.12955" lon="6.38877">
        <ele>2529</ele>
        <time>2022-03-24T12:02:18Z</time>
      </trkpt>
      <trkpt lat="45.12953" lon="6.38884">
        <ele>2529</ele>
        <time>2022-03-24T12:02:19Z</time>
      </trkpt>
      <trkpt lat="45.12951" lon="6.38891">
        <ele>2527</ele>
        <time>2022-03-24T12:02:20Z</time>
      </trkpt>
      <trkpt lat="45.1295" lon="6.38895">
        <ele>2526</ele>
        <time>2022-03-24T12:02:21Z</time>
      </trkpt>
      <trkpt lat="45.12947" lon="6.38891">
        <ele>2520</ele>
        <time>2022-03-24T12:02:56Z</time>
      </trkpt>
      <trkpt lat="45.12945" lon="6.38887">
        <ele>2520</ele>
        <time>2022-03-24T12:02:57Z</time>
      </trkpt>
      <trkpt lat="45.12944" lon="6.38863">
        <ele>2518</ele>
        <time>2022-03-24T12:03:01Z</time>
      </trkpt>
      <trkpt lat="45.12942" lon="6.38858">
        <ele>2518</ele>
        <time>2022-03-24T12:03:02Z</time>
      </trkpt>
      <trkpt lat="45.12938" lon="6.38856">
        <ele>2517</ele>
        <time>2022-03-24T12:03:03Z</time>
      </trkpt>
      <trkpt lat="45.12935" lon="6.38859">
        <ele>2517</ele>
        <time>2022-03-24T12:03:04Z</time>
      </trkpt>
      <trkpt lat="45.12932" lon="6.38864">
        <ele>2516</ele>
        <time>2022-03-24T12:03:05Z</time>
      </trkpt>
      <trkpt lat="45.12929" lon="6.38865">
        <ele>2516</ele>
        <time>2022-03-24T12:03:06Z</time>
      </trkpt>
      <trkpt lat="45.12927" lon="6.38863">
        <ele>2516</ele>
        <time>2022-03-24T12:03:07Z</time>
      </trkpt>
      <trkpt lat="45.12925" lon="6.38859">
        <ele>2515</ele>
        <time>2022-03-24T12:03:08Z</time>
      </trkpt>
      <trkpt lat="45.12921" lon="6.38856">
        <ele>2515</ele>
        <time>2022-03-24T12:03:09Z</time>
      </trkpt>
      <trkpt lat="45.12916" lon="6.38863">
        <ele>2513</ele>
        <time>2022-03-24T12:03:11Z</time>
      </trkpt>
      <trkpt lat="45.1291" lon="6.38866">
        <ele>2512</ele>
        <time>2022-03-24T12:03:13Z</time>
      </trkpt>
      <trkpt lat="45.12905" lon="6.38868">
        <ele>2511</ele>
        <time>2022-03-24T12:03:14Z</time>
      </trkpt>
      <trkpt lat="45.12901" lon="6.38872">
        <ele>2510</ele>
        <time>2022-03-24T12:03:15Z</time>
      </trkpt>
      <trkpt lat="45.129" lon="6.38886">
        <ele>2509</ele>
        <time>2022-03-24T12:03:17Z</time>
      </trkpt>
      <trkpt lat="45.12895" lon="6.38888">
        <ele>2508</ele>
        <time>2022-03-24T12:03:19Z</time>
      </trkpt>
      <trkpt lat="45.1289" lon="6.38886">
        <ele>2506</ele>
        <time>2022-03-24T12:03:20Z</time>
      </trkpt>
      <trkpt lat="45.12886" lon="6.38893">
        <ele>2504</ele>
        <time>2022-03-24T12:03:22Z</time>
      </trkpt>
      <trkpt lat="45.12886" lon="6.38899">
        <ele>2503</ele>
        <time>2022-03-24T12:03:23Z</time>
      </trkpt>
      <trkpt lat="45.12886" lon="6.38905">
        <ele>2502</ele>
        <time>2022-03-24T12:03:24Z</time>
      </trkpt>
      <trkpt lat="45.12881" lon="6.38905">
        <ele>2500</ele>
        <time>2022-03-24T12:03:26Z</time>
      </trkpt>
      <trkpt lat="45.12877" lon="6.38902">
        <ele>2497</ele>
        <time>2022-03-24T12:03:27Z</time>
      </trkpt>
      <trkpt lat="45.12871" lon="6.38906">
        <ele>2495</ele>
        <time>2022-03-24T12:03:29Z</time>
      </trkpt>
      <trkpt lat="45.12873" lon="6.38927">
        <ele>2492</ele>
        <time>2022-03-24T12:03:32Z</time>
      </trkpt>
      <trkpt lat="45.12873" lon="6.38937">
        <ele>2491</ele>
        <time>2022-03-24T12:03:33Z</time>
      </trkpt>
      <trkpt lat="45.12874" lon="6.3895">
        <ele>2489</ele>
        <time>2022-03-24T12:03:35Z</time>
      </trkpt>
      <trkpt lat="45.12876" lon="6.38945">
        <ele>2487</ele>
        <time>2022-03-24T12:03:39Z</time>
      </trkpt>
      <trkpt lat="45.1287" lon="6.38946">
        <ele>2485</ele>
        <time>2022-03-24T12:04:13Z</time>
      </trkpt>
      <trkpt lat="45.12864" lon="6.38939">
        <ele>2483</ele>
        <time>2022-03-24T12:04:15Z</time>
      </trkpt>
      <trkpt lat="45.12861" lon="6.38938">
        <ele>2483</ele>
        <time>2022-03-24T12:04:16Z</time>
      </trkpt>
      <trkpt lat="45.12858" lon="6.38941">
        <ele>2482</ele>
        <time>2022-03-24T12:04:17Z</time>
      </trkpt>
      <trkpt lat="45.12856" lon="6.38946">
        <ele>2482</ele>
        <time>2022-03-24T12:04:18Z</time>
      </trkpt>
      <trkpt lat="45.12851" lon="6.38945">
        <ele>2481</ele>
        <time>2022-03-24T12:04:20Z</time>
      </trkpt>
      <trkpt lat="45.12846" lon="6.38943">
        <ele>2480</ele>
        <time>2022-03-24T12:04:22Z</time>
      </trkpt>
      <trkpt lat="45.12845" lon="6.38953">
        <ele>2479</ele>
        <time>2022-03-24T12:04:24Z</time>
      </trkpt>
      <trkpt lat="45.1284" lon="6.38955">
        <ele>2478</ele>
        <time>2022-03-24T12:04:26Z</time>
      </trkpt>
      <trkpt lat="45.12835" lon="6.38961">
        <ele>2477</ele>
        <time>2022-03-24T12:04:28Z</time>
      </trkpt>
      <trkpt lat="45.12835" lon="6.38968">
        <ele>2476</ele>
        <time>2022-03-24T12:04:29Z</time>
      </trkpt>
      <trkpt lat="45.12836" lon="6.38975">
        <ele>2476</ele>
        <time>2022-03-24T12:04:30Z</time>
      </trkpt>
      <trkpt lat="45.12831" lon="6.38998">
        <ele>2473</ele>
        <time>2022-03-24T12:04:33Z</time>
      </trkpt>
      <trkpt lat="45.12824" lon="6.39008">
        <ele>2469</ele>
        <time>2022-03-24T12:04:38Z</time>
      </trkpt>
      <trkpt lat="45.12819" lon="6.39007">
        <ele>2468</ele>
        <time>2022-03-24T12:04:40Z</time>
      </trkpt>
      <trkpt lat="45.12814" lon="6.39011">
        <ele>2465</ele>
        <time>2022-03-24T12:04:42Z</time>
      </trkpt>
      <trkpt lat="45.12813" lon="6.3902">
        <ele>2462</ele>
        <time>2022-03-24T12:04:44Z</time>
      </trkpt>
      <trkpt lat="45.12808" lon="6.39021">
        <ele>2460</ele>
        <time>2022-03-24T12:04:46Z</time>
      </trkpt>
      <trkpt lat="45.12804" lon="6.39019">
        <ele>2458</ele>
        <time>2022-03-24T12:04:47Z</time>
      </trkpt>
      <trkpt lat="45.128" lon="6.39023">
        <ele>2457</ele>
        <time>2022-03-24T12:04:48Z</time>
      </trkpt>
      <trkpt lat="45.12799" lon="6.3903">
        <ele>2455</ele>
        <time>2022-03-24T12:04:49Z</time>
      </trkpt>
      <trkpt lat="45.12796" lon="6.39036">
        <ele>2454</ele>
        <time>2022-03-24T12:04:51Z</time>
      </trkpt>
      <trkpt lat="45.1279" lon="6.39032">
        <ele>2450</ele>
        <time>2022-03-24T12:04:53Z</time>
      </trkpt>
      <trkpt lat="45.12787" lon="6.39041">
        <ele>2449</ele>
        <time>2022-03-24T12:04:55Z</time>
      </trkpt>
      <trkpt lat="45.12789" lon="6.39049">
        <ele>2447</ele>
        <time>2022-03-24T12:04:56Z</time>
      </trkpt>
      <trkpt lat="45.12791" lon="6.39056">
        <ele>2446</ele>
        <time>2022-03-24T12:04:57Z</time>
      </trkpt>
      <trkpt lat="45.12784" lon="6.39056">
        <ele>2443</ele>
        <time>2022-03-24T12:04:59Z</time>
      </trkpt>
      <trkpt lat="45.12779" lon="6.39052">
        <ele>2440</ele>
        <time>2022-03-24T12:05:00Z</time>
      </trkpt>
      <trkpt lat="45.12774" lon="6.39052">
        <ele>2439</ele>
        <time>2022-03-24T12:05:01Z</time>
      </trkpt>
      <trkpt lat="45.12771" lon="6.39057">
        <ele>2437</ele>
        <time>2022-03-24T12:05:02Z</time>
      </trkpt>
      <trkpt lat="45.12772" lon="6.39065">
        <ele>2436</ele>
        <time>2022-03-24T12:05:03Z</time>
      </trkpt>
      <trkpt lat="45.12774" lon="6.39072">
        <ele>2435</ele>
        <time>2022-03-24T12:05:04Z</time>
      </trkpt>
      <trkpt lat="45.12774" lon="6.39077">
        <ele>2433</ele>
        <time>2022-03-24T12:05:05Z</time>
      </trkpt>
      <trkpt lat="45.12767" lon="6.39079">
        <ele>2430</ele>
        <time>2022-03-24T12:05:07Z</time>
      </trkpt>
      <trkpt lat="45.12765" lon="6.3909">
        <ele>2427</ele>
        <time>2022-03-24T12:05:09Z</time>
      </trkpt>
      <trkpt lat="45.12767" lon="6.39095">
        <ele>2425</ele>
        <time>2022-03-24T12:05:10Z</time>
      </trkpt>
      <trkpt lat="45.12764" lon="6.39099">
        <ele>2422</ele>
        <time>2022-03-24T12:05:13Z</time>
      </trkpt>
      <trkpt lat="45.12762" lon="6.39105">
        <ele>2418</ele>
        <time>2022-03-24T12:05:15Z</time>
      </trkpt>
      <trkpt lat="45.12767" lon="6.39118">
        <ele>2414</ele>
        <time>2022-03-24T12:05:19Z</time>
      </trkpt>
      <trkpt lat="45.12764" lon="6.3912">
        <ele>2408</ele>
        <time>2022-03-24T12:05:52Z</time>
      </trkpt>
      <trkpt lat="45.1276" lon="6.39117">
        <ele>2406</ele>
        <time>2022-03-24T12:05:53Z</time>
      </trkpt>
      <trkpt lat="45.12756" lon="6.39117">
        <ele>2406</ele>
        <time>2022-03-24T12:05:54Z</time>
      </trkpt>
      <trkpt lat="45.12754" lon="6.39121">
        <ele>2406</ele>
        <time>2022-03-24T12:05:55Z</time>
      </trkpt>
      <trkpt lat="45.12753" lon="6.39128">
        <ele>2406</ele>
        <time>2022-03-24T12:05:56Z</time>
      </trkpt>
      <trkpt lat="45.12752" lon="6.39134">
        <ele>2405</ele>
        <time>2022-03-24T12:05:57Z</time>
      </trkpt>
      <trkpt lat="45.12749" lon="6.39138">
        <ele>2405</ele>
        <time>2022-03-24T12:05:58Z</time>
      </trkpt>
      <trkpt lat="45.12745" lon="6.39142">
        <ele>2404</ele>
        <time>2022-03-24T12:05:59Z</time>
      </trkpt>
      <trkpt lat="45.12746" lon="6.39165">
        <ele>2403</ele>
        <time>2022-03-24T12:06:02Z</time>
      </trkpt>
      <trkpt lat="45.12743" lon="6.39172">
        <ele>2403</ele>
        <time>2022-03-24T12:06:03Z</time>
      </trkpt>
      <trkpt lat="45.12738" lon="6.39173">
        <ele>2400</ele>
        <time>2022-03-24T12:06:04Z</time>
      </trkpt>
      <trkpt lat="45.12732" lon="6.39173">
        <ele>2399</ele>
        <time>2022-03-24T12:06:05Z</time>
      </trkpt>
      <trkpt lat="45.12727" lon="6.39177">
        <ele>2399</ele>
        <time>2022-03-24T12:06:06Z</time>
      </trkpt>
      <trkpt lat="45.12725" lon="6.39184">
        <ele>2398</ele>
        <time>2022-03-24T12:06:07Z</time>
      </trkpt>
      <trkpt lat="45.12728" lon="6.39211">
        <ele>2397</ele>
        <time>2022-03-24T12:06:10Z</time>
      </trkpt>
      <trkpt lat="45.12728" lon="6.3922">
        <ele>2395</ele>
        <time>2022-03-24T12:06:11Z</time>
      </trkpt>
      <trkpt lat="45.12725" lon="6.39226">
        <ele>2394</ele>
        <time>2022-03-24T12:06:12Z</time>
      </trkpt>
      <trkpt lat="45.1272" lon="6.3923">
        <ele>2392</ele>
        <time>2022-03-24T12:06:13Z</time>
      </trkpt>
      <trkpt lat="45.12716" lon="6.39235">
        <ele>2391</ele>
        <time>2022-03-24T12:06:14Z</time>
      </trkpt>
      <trkpt lat="45.12715" lon="6.39242">
        <ele>2390</ele>
        <time>2022-03-24T12:06:15Z</time>
      </trkpt>
      <trkpt lat="45.12721" lon="6.39258">
        <ele>2388</ele>
        <time>2022-03-24T12:06:17Z</time>
      </trkpt>
      <trkpt lat="45.12725" lon="6.39277">
        <ele>2386</ele>
        <time>2022-03-24T12:06:19Z</time>
      </trkpt>
      <trkpt lat="45.1272" lon="6.3931">
        <ele>2382</ele>
        <time>2022-03-24T12:06:23Z</time>
      </trkpt>
      <trkpt lat="45.12717" lon="6.39315">
        <ele>2381</ele>
        <time>2022-03-24T12:06:24Z</time>
      </trkpt>
      <trkpt lat="45.12712" lon="6.39316">
        <ele>2379</ele>
        <time>2022-03-24T12:06:25Z</time>
      </trkpt>
      <trkpt lat="45.12706" lon="6.39313">
        <ele>2378</ele>
        <time>2022-03-24T12:06:26Z</time>
      </trkpt>
      <trkpt lat="45.127" lon="6.3931">
        <ele>2377</ele>
        <time>2022-03-24T12:06:27Z</time>
      </trkpt>
      <trkpt lat="45.12694" lon="6.39313">
        <ele>2376</ele>
        <time>2022-03-24T12:06:28Z</time>
      </trkpt>
      <trkpt lat="45.12691" lon="6.39319">
        <ele>2375</ele>
        <time>2022-03-24T12:06:29Z</time>
      </trkpt>
      <trkpt lat="45.12688" lon="6.3935">
        <ele>2371</ele>
        <time>2022-03-24T12:06:33Z</time>
      </trkpt>
      <trkpt lat="45.12681" lon="6.39384">
        <ele>2364</ele>
        <time>2022-03-24T12:06:42Z</time>
      </trkpt>
      <trkpt lat="45.12677" lon="6.39382">
        <ele>2360</ele>
        <time>2022-03-24T12:08:13Z</time>
      </trkpt>
      <trkpt lat="45.12675" lon="6.39374">
        <ele>2359</ele>
        <time>2022-03-24T12:08:15Z</time>
      </trkpt>
      <trkpt lat="45.12674" lon="6.39369">
        <ele>2358</ele>
        <time>2022-03-24T12:08:16Z</time>
      </trkpt>
      <trkpt lat="45.12671" lon="6.39367">
        <ele>2358</ele>
        <time>2022-03-24T12:08:17Z</time>
      </trkpt>
      <trkpt lat="45.12667" lon="6.3937">
        <ele>2357</ele>
        <time>2022-03-24T12:08:18Z</time>
      </trkpt>
      <trkpt lat="45.12665" lon="6.39376">
        <ele>2357</ele>
        <time>2022-03-24T12:08:19Z</time>
      </trkpt>
      <trkpt lat="45.12663" lon="6.39382">
        <ele>2356</ele>
        <time>2022-03-24T12:08:20Z</time>
      </trkpt>
      <trkpt lat="45.12657" lon="6.39381">
        <ele>2355</ele>
        <time>2022-03-24T12:08:22Z</time>
      </trkpt>
      <trkpt lat="45.12653" lon="6.39378">
        <ele>2354</ele>
        <time>2022-03-24T12:08:23Z</time>
      </trkpt>
      <trkpt lat="45.12648" lon="6.39389">
        <ele>2353</ele>
        <time>2022-03-24T12:08:25Z</time>
      </trkpt>
      <trkpt lat="45.1265" lon="6.39406">
        <ele>2352</ele>
        <time>2022-03-24T12:08:27Z</time>
      </trkpt>
      <trkpt lat="45.12648" lon="6.39448">
        <ele>2348</ele>
        <time>2022-03-24T12:08:32Z</time>
      </trkpt>
      <trkpt lat="45.12621" lon="6.3954">
        <ele>2336</ele>
        <time>2022-03-24T12:08:41Z</time>
      </trkpt>
      <trkpt lat="45.12613" lon="6.39556">
        <ele>2334</ele>
        <time>2022-03-24T12:08:43Z</time>
      </trkpt>
      <trkpt lat="45.1261" lon="6.39572">
        <ele>2332</ele>
        <time>2022-03-24T12:08:45Z</time>
      </trkpt>
      <trkpt lat="45.12611" lon="6.39648">
        <ele>2321</ele>
        <time>2022-03-24T12:08:54Z</time>
      </trkpt>
      <trkpt lat="45.12606" lon="6.39671">
        <ele>2317</ele>
        <time>2022-03-24T12:08:58Z</time>
      </trkpt>
      <trkpt lat="45.12604" lon="6.39671">
        <ele>2313</ele>
        <time>2022-03-24T12:09:52Z</time>
      </trkpt>
      <trkpt lat="45.126" lon="6.39666">
        <ele>2312</ele>
        <time>2022-03-24T12:09:54Z</time>
      </trkpt>
      <trkpt lat="45.12598" lon="6.39659">
        <ele>2311</ele>
        <time>2022-03-24T12:09:55Z</time>
      </trkpt>
      <trkpt lat="45.12595" lon="6.39653">
        <ele>2311</ele>
        <time>2022-03-24T12:09:56Z</time>
      </trkpt>
      <trkpt lat="45.12592" lon="6.39649">
        <ele>2310</ele>
        <time>2022-03-24T12:09:57Z</time>
      </trkpt>
      <trkpt lat="45.12587" lon="6.39651">
        <ele>2310</ele>
        <time>2022-03-24T12:09:58Z</time>
      </trkpt>
      <trkpt lat="45.12583" lon="6.39658">
        <ele>2309</ele>
        <time>2022-03-24T12:09:59Z</time>
      </trkpt>
      <trkpt lat="45.12581" lon="6.3967">
        <ele>2308</ele>
        <time>2022-03-24T12:10:00Z</time>
      </trkpt>
      <trkpt lat="45.12587" lon="6.39716">
        <ele>2306</ele>
        <time>2022-03-24T12:10:05Z</time>
      </trkpt>
      <trkpt lat="45.12587" lon="6.39721">
        <ele>2305</ele>
        <time>2022-03-24T12:10:06Z</time>
      </trkpt>
      <trkpt lat="45.12583" lon="6.39722">
        <ele>2304</ele>
        <time>2022-03-24T12:10:07Z</time>
      </trkpt>
      <trkpt lat="45.12573" lon="6.39714">
        <ele>2302</ele>
        <time>2022-03-24T12:10:09Z</time>
      </trkpt>
      <trkpt lat="45.12563" lon="6.39702">
        <ele>2301</ele>
        <time>2022-03-24T12:10:12Z</time>
      </trkpt>
      <trkpt lat="45.12559" lon="6.397">
        <ele>2300</ele>
        <time>2022-03-24T12:10:13Z</time>
      </trkpt>
      <trkpt lat="45.12556" lon="6.39708">
        <ele>2300</ele>
        <time>2022-03-24T12:10:15Z</time>
      </trkpt>
      <trkpt lat="45.12557" lon="6.39713">
        <ele>2299</ele>
        <time>2022-03-24T12:10:17Z</time>
      </trkpt>
      <trkpt lat="45.12552" lon="6.39713">
        <ele>2297</ele>
        <time>2022-03-24T12:10:28Z</time>
      </trkpt>
      <trkpt lat="45.12545" lon="6.39698">
        <ele>2294</ele>
        <time>2022-03-24T12:10:32Z</time>
      </trkpt>
      <trkpt lat="45.12529" lon="6.39659">
        <ele>2291</ele>
        <time>2022-03-24T12:10:42Z</time>
      </trkpt>
      <trkpt lat="45.12525" lon="6.39652">
        <ele>2290</ele>
        <time>2022-03-24T12:10:44Z</time>
      </trkpt>
      <trkpt lat="45.12522" lon="6.39649">
        <ele>2289</ele>
        <time>2022-03-24T12:10:45Z</time>
      </trkpt>
      <trkpt lat="45.12518" lon="6.39653">
        <ele>2288</ele>
        <time>2022-03-24T12:10:47Z</time>
      </trkpt>
      <trkpt lat="45.12512" lon="6.39654">
        <ele>2287</ele>
        <time>2022-03-24T12:10:49Z</time>
      </trkpt>
      <trkpt lat="45.12502" lon="6.39645">
        <ele>2286</ele>
        <time>2022-03-24T12:10:52Z</time>
      </trkpt>
      <trkpt lat="45.12498" lon="6.39643">
        <ele>2286</ele>
        <time>2022-03-24T12:10:53Z</time>
      </trkpt>
      <trkpt lat="45.12495" lon="6.3965">
        <ele>2283</ele>
        <time>2022-03-24T12:10:55Z</time>
      </trkpt>
      <trkpt lat="45.12494" lon="6.39656">
        <ele>2281</ele>
        <time>2022-03-24T12:10:57Z</time>
      </trkpt>
      <trkpt lat="45.12486" lon="6.39658">
        <ele>2276</ele>
        <time>2022-03-24T12:10:59Z</time>
      </trkpt>
      <trkpt lat="45.1248" lon="6.39654">
        <ele>2274</ele>
        <time>2022-03-24T12:11:00Z</time>
      </trkpt>
      <trkpt lat="45.12474" lon="6.39647">
        <ele>2271</ele>
        <time>2022-03-24T12:11:02Z</time>
      </trkpt>
      <trkpt lat="45.12472" lon="6.39652">
        <ele>2270</ele>
        <time>2022-03-24T12:11:04Z</time>
      </trkpt>
      <trkpt lat="45.12483" lon="6.39687">
        <ele>2267</ele>
        <time>2022-03-24T12:11:09Z</time>
      </trkpt>
      <trkpt lat="45.12486" lon="6.39706">
        <ele>2264</ele>
        <time>2022-03-24T12:11:12Z</time>
      </trkpt>
      <trkpt lat="45.12488" lon="6.39711">
        <ele>2263</ele>
        <time>2022-03-24T12:11:13Z</time>
      </trkpt>
      <trkpt lat="45.1249" lon="6.39715">
        <ele>2262</ele>
        <time>2022-03-24T12:11:14Z</time>
      </trkpt>
      <trkpt lat="45.12486" lon="6.39723">
        <ele>2261</ele>
        <time>2022-03-24T12:11:16Z</time>
      </trkpt>
      <trkpt lat="45.12481" lon="6.39723">
        <ele>2259</ele>
        <time>2022-03-24T12:11:17Z</time>
      </trkpt>
      <trkpt lat="45.12474" lon="6.39714">
        <ele>2258</ele>
        <time>2022-03-24T12:11:19Z</time>
      </trkpt>
      <trkpt lat="45.12471" lon="6.39707">
        <ele>2257</ele>
        <time>2022-03-24T12:11:21Z</time>
      </trkpt>
      <trkpt lat="45.12469" lon="6.39704">
        <ele>2255</ele>
        <time>2022-03-24T12:11:23Z</time>
      </trkpt>
      <trkpt lat="45.12465" lon="6.39703">
        <ele>2254</ele>
        <time>2022-03-24T12:11:25Z</time>
      </trkpt>
      <trkpt lat="45.12465" lon="6.39708">
        <ele>2249</ele>
        <time>2022-03-24T12:16:06Z</time>
      </trkpt>
      <trkpt lat="45.12465" lon="6.39713">
        <ele>2249</ele>
        <time>2022-03-24T12:16:10Z</time>
      </trkpt>
      <trkpt lat="45.12459" lon="6.39716">
        <ele>2248</ele>
        <time>2022-03-24T12:16:12Z</time>
      </trkpt>
      <trkpt lat="45.12448" lon="6.39706">
        <ele>2246</ele>
        <time>2022-03-24T12:16:15Z</time>
      </trkpt>
      <trkpt lat="45.12435" lon="6.39696">
        <ele>2245</ele>
        <time>2022-03-24T12:16:19Z</time>
      </trkpt>
      <trkpt lat="45.12431" lon="6.39696">
        <ele>2244</ele>
        <time>2022-03-24T12:16:20Z</time>
      </trkpt>
      <trkpt lat="45.12429" lon="6.397">
        <ele>2244</ele>
        <time>2022-03-24T12:16:21Z</time>
      </trkpt>
      <trkpt lat="45.1245" lon="6.39792">
        <ele>2237</ele>
        <time>2022-03-24T12:16:32Z</time>
      </trkpt>
      <trkpt lat="45.1245" lon="6.39797">
        <ele>2236</ele>
        <time>2022-03-24T12:16:33Z</time>
      </trkpt>
      <trkpt lat="45.12442" lon="6.39799">
        <ele>2235</ele>
        <time>2022-03-24T12:16:35Z</time>
      </trkpt>
      <trkpt lat="45.12425" lon="6.39781">
        <ele>2232</ele>
        <time>2022-03-24T12:16:38Z</time>
      </trkpt>
      <trkpt lat="45.12419" lon="6.39779">
        <ele>2231</ele>
        <time>2022-03-24T12:16:39Z</time>
      </trkpt>
      <trkpt lat="45.12414" lon="6.39784">
        <ele>2231</ele>
        <time>2022-03-24T12:16:40Z</time>
      </trkpt>
      <trkpt lat="45.12412" lon="6.39794">
        <ele>2230</ele>
        <time>2022-03-24T12:16:41Z</time>
      </trkpt>
      <trkpt lat="45.12426" lon="6.39846">
        <ele>2226</ele>
        <time>2022-03-24T12:16:46Z</time>
      </trkpt>
      <trkpt lat="45.12428" lon="6.39856">
        <ele>2225</ele>
        <time>2022-03-24T12:16:47Z</time>
      </trkpt>
      <trkpt lat="45.12426" lon="6.39865">
        <ele>2224</ele>
        <time>2022-03-24T12:16:48Z</time>
      </trkpt>
      <trkpt lat="45.12412" lon="6.39875">
        <ele>2221</ele>
        <time>2022-03-24T12:16:50Z</time>
      </trkpt>
      <trkpt lat="45.12405" lon="6.3988">
        <ele>2220</ele>
        <time>2022-03-24T12:16:51Z</time>
      </trkpt>
      <trkpt lat="45.12398" lon="6.39938">
        <ele>2212</ele>
        <time>2022-03-24T12:16:57Z</time>
      </trkpt>
      <trkpt lat="45.12391" lon="6.39937">
        <ele>2207</ele>
        <time>2022-03-24T12:17:00Z</time>
      </trkpt>
      <trkpt lat="45.12384" lon="6.39934">
        <ele>2206</ele>
        <time>2022-03-24T12:17:01Z</time>
      </trkpt>
      <trkpt lat="45.12381" lon="6.39937">
        <ele>2204</ele>
        <time>2022-03-24T12:17:02Z</time>
      </trkpt>
      <trkpt lat="45.12382" lon="6.39954">
        <ele>2201</ele>
        <time>2022-03-24T12:17:04Z</time>
      </trkpt>
      <trkpt lat="45.12381" lon="6.39954">
        <ele>2196</ele>
        <time>2022-03-24T12:17:29Z</time>
      </trkpt>
      <trkpt lat="45.12364" lon="6.3992">
        <ele>2195</ele>
        <time>2022-03-24T12:17:43Z</time>
      </trkpt>
      <trkpt lat="45.12361" lon="6.39917">
        <ele>2195</ele>
        <time>2022-03-24T12:17:44Z</time>
      </trkpt>
      <trkpt lat="45.12359" lon="6.39913">
        <ele>2194</ele>
        <time>2022-03-24T12:17:45Z</time>
      </trkpt>
      <trkpt lat="45.12355" lon="6.39909">
        <ele>2194</ele>
        <time>2022-03-24T12:17:46Z</time>
      </trkpt>
      <trkpt lat="45.12352" lon="6.39902">
        <ele>2193</ele>
        <time>2022-03-24T12:17:48Z</time>
      </trkpt>
      <trkpt lat="45.12339" lon="6.39888">
        <ele>2190</ele>
        <time>2022-03-24T12:17:53Z</time>
      </trkpt>
      <trkpt lat="45.12333" lon="6.3988">
        <ele>2189</ele>
        <time>2022-03-24T12:17:56Z</time>
      </trkpt>
      <trkpt lat="45.1233" lon="6.39879">
        <ele>2188</ele>
        <time>2022-03-24T12:17:58Z</time>
      </trkpt>
      <trkpt lat="45.12328" lon="6.39883">
        <ele>2186</ele>
        <time>2022-03-24T12:18:03Z</time>
      </trkpt>
      <trkpt lat="45.12324" lon="6.39882">
        <ele>2185</ele>
        <time>2022-03-24T12:18:07Z</time>
      </trkpt>
      <trkpt lat="45.12322" lon="6.39881">
        <ele>2184</ele>
        <time>2022-03-24T12:18:08Z</time>
      </trkpt>
      <trkpt lat="45.12319" lon="6.39876">
        <ele>2183</ele>
        <time>2022-03-24T12:18:10Z</time>
      </trkpt>
      <trkpt lat="45.12316" lon="6.3988">
        <ele>2182</ele>
        <time>2022-03-24T12:18:13Z</time>
      </trkpt>
      <trkpt lat="45.12315" lon="6.39898">
        <ele>2180</ele>
        <time>2022-03-24T12:18:19Z</time>
      </trkpt>
      <trkpt lat="45.12312" lon="6.39899">
        <ele>2179</ele>
        <time>2022-03-24T12:18:21Z</time>
      </trkpt>
      <trkpt lat="45.1231" lon="6.39897">
        <ele>2178</ele>
        <time>2022-03-24T12:18:22Z</time>
      </trkpt>
      <trkpt lat="45.12307" lon="6.39905">
        <ele>2177</ele>
        <time>2022-03-24T12:18:24Z</time>
      </trkpt>
      <trkpt lat="45.12308" lon="6.39911">
        <ele>2177</ele>
        <time>2022-03-24T12:18:27Z</time>
      </trkpt>
      <trkpt lat="45.12304" lon="6.39911">
        <ele>2175</ele>
        <time>2022-03-24T12:18:33Z</time>
      </trkpt>
      <trkpt lat="45.12302" lon="6.39915">
        <ele>2173</ele>
        <time>2022-03-24T12:18:35Z</time>
      </trkpt>
      <trkpt lat="45.12303" lon="6.39929">
        <ele>2169</ele>
        <time>2022-03-24T12:18:46Z</time>
      </trkpt>
      <trkpt lat="45.12301" lon="6.3993">
        <ele>2167</ele>
        <time>2022-03-24T12:18:50Z</time>
      </trkpt>
      <trkpt lat="45.1229" lon="6.39916">
        <ele>2165</ele>
        <time>2022-03-24T12:18:54Z</time>
      </trkpt>
      <trkpt lat="45.12286" lon="6.39916">
        <ele>2165</ele>
        <time>2022-03-24T12:18:55Z</time>
      </trkpt>
      <trkpt lat="45.12283" lon="6.39916">
        <ele>2165</ele>
        <time>2022-03-24T12:18:56Z</time>
      </trkpt>
      <trkpt lat="45.12282" lon="6.39921">
        <ele>2164</ele>
        <time>2022-03-24T12:18:58Z</time>
      </trkpt>
      <trkpt lat="45.12277" lon="6.39922">
        <ele>2161</ele>
        <time>2022-03-24T12:22:43Z</time>
      </trkpt>
      <trkpt lat="45.12269" lon="6.39912">
        <ele>2155</ele>
        <time>2022-03-24T12:22:46Z</time>
      </trkpt>
      <trkpt lat="45.12266" lon="6.39909">
        <ele>2154</ele>
        <time>2022-03-24T12:22:47Z</time>
      </trkpt>
      <trkpt lat="45.12262" lon="6.39908">
        <ele>2154</ele>
        <time>2022-03-24T12:22:48Z</time>
      </trkpt>
      <trkpt lat="45.12259" lon="6.39909">
        <ele>2153</ele>
        <time>2022-03-24T12:22:49Z</time>
      </trkpt>
      <trkpt lat="45.12257" lon="6.39914">
        <ele>2153</ele>
        <time>2022-03-24T12:22:50Z</time>
      </trkpt>
      <trkpt lat="45.12258" lon="6.39921">
        <ele>2153</ele>
        <time>2022-03-24T12:22:51Z</time>
      </trkpt>
      <trkpt lat="45.12259" lon="6.39927">
        <ele>2152</ele>
        <time>2022-03-24T12:22:52Z</time>
      </trkpt>
      <trkpt lat="45.12255" lon="6.39929">
        <ele>2151</ele>
        <time>2022-03-24T12:22:54Z</time>
      </trkpt>
      <trkpt lat="45.12248" lon="6.39924">
        <ele>2150</ele>
        <time>2022-03-24T12:22:56Z</time>
      </trkpt>
      <trkpt lat="45.12244" lon="6.39926">
        <ele>2150</ele>
        <time>2022-03-24T12:22:57Z</time>
      </trkpt>
      <trkpt lat="45.1224" lon="6.39932">
        <ele>2149</ele>
        <time>2022-03-24T12:22:59Z</time>
      </trkpt>
      <trkpt lat="45.1224" lon="6.3994">
        <ele>2149</ele>
        <time>2022-03-24T12:23:01Z</time>
      </trkpt>
      <trkpt lat="45.12231" lon="6.39932">
        <ele>2147</ele>
        <time>2022-03-24T12:23:05Z</time>
      </trkpt>
      <trkpt lat="45.12228" lon="6.3993">
        <ele>2146</ele>
        <time>2022-03-24T12:23:06Z</time>
      </trkpt>
      <trkpt lat="45.12221" lon="6.39933">
        <ele>2141</ele>
        <time>2022-03-24T12:23:08Z</time>
      </trkpt>
      <trkpt lat="45.12221" lon="6.39949">
        <ele>2136</ele>
        <time>2022-03-24T12:23:10Z</time>
      </trkpt>
      <trkpt lat="45.12234" lon="6.39988">
        <ele>2130</ele>
        <time>2022-03-24T12:23:16Z</time>
      </trkpt>
      <trkpt lat="45.12235" lon="6.39993">
        <ele>2129</ele>
        <time>2022-03-24T12:23:17Z</time>
      </trkpt>
      <trkpt lat="45.1223" lon="6.39996">
        <ele>2127</ele>
        <time>2022-03-24T12:23:19Z</time>
      </trkpt>
      <trkpt lat="45.12211" lon="6.3997">
        <ele>2121</ele>
        <time>2022-03-24T12:23:24Z</time>
      </trkpt>
      <trkpt lat="45.12208" lon="6.39968">
        <ele>2120</ele>
        <time>2022-03-24T12:23:25Z</time>
      </trkpt>
      <trkpt lat="45.12204" lon="6.39969">
        <ele>2120</ele>
        <time>2022-03-24T12:23:26Z</time>
      </trkpt>
      <trkpt lat="45.12201" lon="6.39974">
        <ele>2119</ele>
        <time>2022-03-24T12:23:27Z</time>
      </trkpt>
      <trkpt lat="45.122" lon="6.39982">
        <ele>2118</ele>
        <time>2022-03-24T12:23:28Z</time>
      </trkpt>
      <trkpt lat="45.12201" lon="6.39988">
        <ele>2118</ele>
        <time>2022-03-24T12:23:29Z</time>
      </trkpt>
      <trkpt lat="45.12203" lon="6.39992">
        <ele>2117</ele>
        <time>2022-03-24T12:23:30Z</time>
      </trkpt>
      <trkpt lat="45.122" lon="6.39994">
        <ele>2114</ele>
        <time>2022-03-24T12:23:36Z</time>
      </trkpt>
      <trkpt lat="45.12197" lon="6.39993">
        <ele>2114</ele>
        <time>2022-03-24T12:23:37Z</time>
      </trkpt>
      <trkpt lat="45.12188" lon="6.39982">
        <ele>2109</ele>
        <time>2022-03-24T12:23:40Z</time>
      </trkpt>
      <trkpt lat="45.12179" lon="6.39978">
        <ele>2107</ele>
        <time>2022-03-24T12:23:44Z</time>
      </trkpt>
      <trkpt lat="45.12177" lon="6.39983">
        <ele>2106</ele>
        <time>2022-03-24T12:23:46Z</time>
      </trkpt>
      <trkpt lat="45.1218" lon="6.39992">
        <ele>2104</ele>
        <time>2022-03-24T12:23:48Z</time>
      </trkpt>
      <trkpt lat="45.12181" lon="6.39999">
        <ele>2103</ele>
        <time>2022-03-24T12:23:50Z</time>
      </trkpt>
      <trkpt lat="45.12175" lon="6.39999">
        <ele>2102</ele>
        <time>2022-03-24T12:23:52Z</time>
      </trkpt>
      <trkpt lat="45.12169" lon="6.39994">
        <ele>2102</ele>
        <time>2022-03-24T12:23:54Z</time>
      </trkpt>
      <trkpt lat="45.12165" lon="6.39995">
        <ele>2100</ele>
        <time>2022-03-24T12:24:04Z</time>
      </trkpt>
      <trkpt lat="45.12164" lon="6.39999">
        <ele>2100</ele>
        <time>2022-03-24T12:24:05Z</time>
      </trkpt>
      <trkpt lat="45.12167" lon="6.40009">
        <ele>2099</ele>
        <time>2022-03-24T12:24:07Z</time>
      </trkpt>
      <trkpt lat="45.12168" lon="6.40013">
        <ele>2099</ele>
        <time>2022-03-24T12:24:08Z</time>
      </trkpt>
      <trkpt lat="45.12172" lon="6.40025">
        <ele>2098</ele>
        <time>2022-03-24T12:24:10Z</time>
      </trkpt>
      <trkpt lat="45.12174" lon="6.4003">
        <ele>2098</ele>
        <time>2022-03-24T12:24:11Z</time>
      </trkpt>
      <trkpt lat="45.12176" lon="6.40055">
        <ele>2095</ele>
        <time>2022-03-24T12:24:15Z</time>
      </trkpt>
      <trkpt lat="45.12174" lon="6.40058">
        <ele>2094</ele>
        <time>2022-03-24T12:24:23Z</time>
      </trkpt>
      <trkpt lat="45.12181" lon="6.40086">
        <ele>2090</ele>
        <time>2022-03-24T12:24:28Z</time>
      </trkpt>
      <trkpt lat="45.12183" lon="6.40095">
        <ele>2089</ele>
        <time>2022-03-24T12:24:30Z</time>
      </trkpt>
      <trkpt lat="45.12193" lon="6.40117">
        <ele>2085</ele>
        <time>2022-03-24T12:24:36Z</time>
      </trkpt>
      <trkpt lat="45.12195" lon="6.40121">
        <ele>2084</ele>
        <time>2022-03-24T12:24:37Z</time>
      </trkpt>
      <trkpt lat="45.12197" lon="6.40125">
        <ele>2084</ele>
        <time>2022-03-24T12:24:38Z</time>
      </trkpt>
      <trkpt lat="45.12197" lon="6.4013">
        <ele>2083</ele>
        <time>2022-03-24T12:24:39Z</time>
      </trkpt>
      <trkpt lat="45.12194" lon="6.40132">
        <ele>2082</ele>
        <time>2022-03-24T12:24:40Z</time>
      </trkpt>
      <trkpt lat="45.1219" lon="6.40131">
        <ele>2082</ele>
        <time>2022-03-24T12:24:41Z</time>
      </trkpt>
      <trkpt lat="45.12186" lon="6.40128">
        <ele>2081</ele>
        <time>2022-03-24T12:24:42Z</time>
      </trkpt>
      <trkpt lat="45.12182" lon="6.40128">
        <ele>2081</ele>
        <time>2022-03-24T12:24:43Z</time>
      </trkpt>
      <trkpt lat="45.1218" lon="6.4013">
        <ele>2080</ele>
        <time>2022-03-24T12:24:44Z</time>
      </trkpt>
      <trkpt lat="45.12181" lon="6.40135">
        <ele>2080</ele>
        <time>2022-03-24T12:24:45Z</time>
      </trkpt>
      <trkpt lat="45.12183" lon="6.40138">
        <ele>2079</ele>
        <time>2022-03-24T12:24:46Z</time>
      </trkpt>
      <trkpt lat="45.12184" lon="6.40145">
        <ele>2078</ele>
        <time>2022-03-24T12:24:48Z</time>
      </trkpt>
      <trkpt lat="45.12177" lon="6.40146">
        <ele>2077</ele>
        <time>2022-03-24T12:24:50Z</time>
      </trkpt>
      <trkpt lat="45.12171" lon="6.40147">
        <ele>2076</ele>
        <time>2022-03-24T12:24:52Z</time>
      </trkpt>
      <trkpt lat="45.12191" lon="6.40178">
        <ele>2072</ele>
        <time>2022-03-24T12:25:11Z</time>
      </trkpt>
      <trkpt lat="45.12199" lon="6.40191">
        <ele>2071</ele>
        <time>2022-03-24T12:25:13Z</time>
      </trkpt>
      <trkpt lat="45.122" lon="6.40202">
        <ele>2068</ele>
        <time>2022-03-24T12:25:16Z</time>
      </trkpt>
      <trkpt lat="45.12211" lon="6.40235">
        <ele>2061</ele>
        <time>2022-03-24T12:25:22Z</time>
      </trkpt>
      <trkpt lat="45.12213" lon="6.40247">
        <ele>2059</ele>
        <time>2022-03-24T12:25:25Z</time>
      </trkpt>
      <trkpt lat="45.12219" lon="6.40291">
        <ele>2053</ele>
        <time>2022-03-24T12:25:36Z</time>
      </trkpt>
      <trkpt lat="45.12219" lon="6.40331">
        <ele>2050</ele>
        <time>2022-03-24T12:25:42Z</time>
      </trkpt>
      <trkpt lat="45.12225" lon="6.40373">
        <ele>2045</ele>
        <time>2022-03-24T12:25:53Z</time>
      </trkpt>
      <trkpt lat="45.12226" lon="6.40386">
        <ele>2043</ele>
        <time>2022-03-24T12:25:55Z</time>
      </trkpt>
      <trkpt lat="45.12226" lon="6.40392">
        <ele>2043</ele>
        <time>2022-03-24T12:25:56Z</time>
      </trkpt>
      <trkpt lat="45.12229" lon="6.40399">
        <ele>2040</ele>
        <time>2022-03-24T12:26:01Z</time>
      </trkpt>
      <trkpt lat="45.12229" lon="6.40413">
        <ele>2037</ele>
        <time>2022-03-24T12:26:12Z</time>
      </trkpt>
      <trkpt lat="45.12224" lon="6.40414">
        <ele>2037</ele>
        <time>2022-03-24T12:26:14Z</time>
      </trkpt>
      <trkpt lat="45.12221" lon="6.40418">
        <ele>2037</ele>
        <time>2022-03-24T12:26:16Z</time>
      </trkpt>
      <trkpt lat="45.12216" lon="6.4042">
        <ele>2037</ele>
        <time>2022-03-24T12:26:18Z</time>
      </trkpt>
      <trkpt lat="45.12212" lon="6.40415">
        <ele>2037</ele>
        <time>2022-03-24T12:26:20Z</time>
      </trkpt>
      <trkpt lat="45.12207" lon="6.40414">
        <ele>2037</ele>
        <time>2022-03-24T12:26:22Z</time>
      </trkpt>
      <trkpt lat="45.12206" lon="6.40417">
        <ele>2037</ele>
        <time>2022-03-24T12:26:23Z</time>
      </trkpt>
      <trkpt lat="45.12217" lon="6.40444">
        <ele>2037</ele>
        <time>2022-03-24T12:26:35Z</time>
      </trkpt>
      <trkpt lat="45.12213" lon="6.40446">
        <ele>2037</ele>
        <time>2022-03-24T12:26:37Z</time>
      </trkpt>
      <trkpt lat="45.1221" lon="6.40445">
        <ele>2030</ele>
        <time>2022-03-24T12:26:39Z</time>
      </trkpt>
      <trkpt lat="45.12206" lon="6.4045">
        <ele>2026</ele>
        <time>2022-03-24T12:26:41Z</time>
      </trkpt>
      <trkpt lat="45.12207" lon="6.40455">
        <ele>2025</ele>
        <time>2022-03-24T12:26:42Z</time>
      </trkpt>
      <trkpt lat="45.12213" lon="6.40461">
        <ele>2024</ele>
        <time>2022-03-24T12:26:45Z</time>
      </trkpt>
      <trkpt lat="45.12195" lon="6.40473">
        <ele>2024</ele>
        <time>2022-03-24T12:26:52Z</time>
      </trkpt>
      <trkpt lat="45.12182" lon="6.4047">
        <ele>2024</ele>
        <time>2022-03-24T12:26:54Z</time>
      </trkpt>
      <trkpt lat="45.12168" lon="6.40461">
        <ele>2014</ele>
        <time>2022-03-24T12:26:57Z</time>
      </trkpt>
      <trkpt lat="45.12165" lon="6.40465">
        <ele>2010</ele>
        <time>2022-03-24T12:28:44Z</time>
      </trkpt>
      <trkpt lat="45.12164" lon="6.40472">
        <ele>2009</ele>
        <time>2022-03-24T12:28:46Z</time>
      </trkpt>
      <trkpt lat="45.12166" lon="6.40477">
        <ele>2009</ele>
        <time>2022-03-24T12:28:47Z</time>
      </trkpt>
      <trkpt lat="45.12165" lon="6.40482">
        <ele>2009</ele>
        <time>2022-03-24T12:28:48Z</time>
      </trkpt>
      <trkpt lat="45.12161" lon="6.40486">
        <ele>2008</ele>
        <time>2022-03-24T12:28:50Z</time>
      </trkpt>
      <trkpt lat="45.12158" lon="6.40485">
        <ele>2007</ele>
        <time>2022-03-24T12:28:51Z</time>
      </trkpt>
      <trkpt lat="45.12155" lon="6.40488">
        <ele>2007</ele>
        <time>2022-03-24T12:28:52Z</time>
      </trkpt>
      <trkpt lat="45.12154" lon="6.40504">
        <ele>2006</ele>
        <time>2022-03-24T12:28:55Z</time>
      </trkpt>
      <trkpt lat="45.12149" lon="6.40484">
        <ele>2003</ele>
        <time>2022-03-24T12:29:09Z</time>
      </trkpt>
      <trkpt lat="45.12143" lon="6.4048">
        <ele>2003</ele>
        <time>2022-03-24T12:29:15Z</time>
      </trkpt>
      <trkpt lat="45.1214" lon="6.40478">
        <ele>2003</ele>
        <time>2022-03-24T12:29:18Z</time>
      </trkpt>
      <trkpt lat="45.12135" lon="6.40473">
        <ele>1999</ele>
        <time>2022-03-24T12:29:24Z</time>
      </trkpt>
      <trkpt lat="45.12131" lon="6.4047">
        <ele>1998</ele>
        <time>2022-03-24T12:29:26Z</time>
      </trkpt>
      <trkpt lat="45.12129" lon="6.40465">
        <ele>1998</ele>
        <time>2022-03-24T12:29:28Z</time>
      </trkpt>
      <trkpt lat="45.12125" lon="6.40469">
        <ele>1997</ele>
        <time>2022-03-24T12:29:30Z</time>
      </trkpt>
      <trkpt lat="45.12125" lon="6.40479">
        <ele>1996</ele>
        <time>2022-03-24T12:29:32Z</time>
      </trkpt>
      <trkpt lat="45.12126" lon="6.40485">
        <ele>1996</ele>
        <time>2022-03-24T12:29:34Z</time>
      </trkpt>
      <trkpt lat="45.12122" lon="6.40481">
        <ele>1992</ele>
        <time>2022-03-24T12:31:17Z</time>
      </trkpt>
      <trkpt lat="45.12114" lon="6.40472">
        <ele>1990</ele>
        <time>2022-03-24T12:31:20Z</time>
      </trkpt>
      <trkpt lat="45.12107" lon="6.40471">
        <ele>1989</ele>
        <time>2022-03-24T12:31:22Z</time>
      </trkpt>
      <trkpt lat="45.12103" lon="6.40471">
        <ele>1989</ele>
        <time>2022-03-24T12:31:23Z</time>
      </trkpt>
      <trkpt lat="45.12099" lon="6.40469">
        <ele>1988</ele>
        <time>2022-03-24T12:31:25Z</time>
      </trkpt>
      <trkpt lat="45.12095" lon="6.40468">
        <ele>1988</ele>
        <time>2022-03-24T12:31:26Z</time>
      </trkpt>
      <trkpt lat="45.1209" lon="6.40472">
        <ele>1988</ele>
        <time>2022-03-24T12:31:27Z</time>
      </trkpt>
      <trkpt lat="45.12087" lon="6.40474">
        <ele>1988</ele>
        <time>2022-03-24T12:31:28Z</time>
      </trkpt>
      <trkpt lat="45.12089" lon="6.40481">
        <ele>1988</ele>
        <time>2022-03-24T12:31:30Z</time>
      </trkpt>
      <trkpt lat="45.12092" lon="6.40485">
        <ele>1988</ele>
        <time>2022-03-24T12:31:31Z</time>
      </trkpt>
      <trkpt lat="45.12095" lon="6.40496">
        <ele>1987</ele>
        <time>2022-03-24T12:31:34Z</time>
      </trkpt>
      <trkpt lat="45.12095" lon="6.405">
        <ele>1987</ele>
        <time>2022-03-24T12:31:35Z</time>
      </trkpt>
      <trkpt lat="45.1209" lon="6.40501">
        <ele>1986</ele>
        <time>2022-03-24T12:31:38Z</time>
      </trkpt>
      <trkpt lat="45.1208" lon="6.40494">
        <ele>1985</ele>
        <time>2022-03-24T12:31:40Z</time>
      </trkpt>
      <trkpt lat="45.12064" lon="6.40486">
        <ele>1979</ele>
        <time>2022-03-24T12:31:43Z</time>
      </trkpt>
      <trkpt lat="45.12053" lon="6.40484">
        <ele>1977</ele>
        <time>2022-03-24T12:31:46Z</time>
      </trkpt>
      <trkpt lat="45.1205" lon="6.40485">
        <ele>1977</ele>
        <time>2022-03-24T12:31:47Z</time>
      </trkpt>
      <trkpt lat="45.12048" lon="6.4049">
        <ele>1976</ele>
        <time>2022-03-24T12:31:49Z</time>
      </trkpt>
      <trkpt lat="45.1203" lon="6.40475">
        <ele>1972</ele>
        <time>2022-03-24T12:31:58Z</time>
      </trkpt>
      <trkpt lat="45.12018" lon="6.40467">
        <ele>1970</ele>
        <time>2022-03-24T12:32:01Z</time>
      </trkpt>
      <trkpt lat="45.12013" lon="6.40466">
        <ele>1969</ele>
        <time>2022-03-24T12:32:02Z</time>
      </trkpt>
      <trkpt lat="45.12009" lon="6.40467">
        <ele>1969</ele>
        <time>2022-03-24T12:32:03Z</time>
      </trkpt>
      <trkpt lat="45.12006" lon="6.40472">
        <ele>1969</ele>
        <time>2022-03-24T12:32:04Z</time>
      </trkpt>
      <trkpt lat="45.12006" lon="6.40479">
        <ele>1969</ele>
        <time>2022-03-24T12:32:05Z</time>
      </trkpt>
      <trkpt lat="45.12009" lon="6.40485">
        <ele>1969</ele>
        <time>2022-03-24T12:32:06Z</time>
      </trkpt>
      <trkpt lat="45.12016" lon="6.40491">
        <ele>1967</ele>
        <time>2022-03-24T12:32:08Z</time>
      </trkpt>
      <trkpt lat="45.12017" lon="6.40495">
        <ele>1967</ele>
        <time>2022-03-24T12:32:09Z</time>
      </trkpt>
      <trkpt lat="45.12017" lon="6.40499">
        <ele>1966</ele>
        <time>2022-03-24T12:32:10Z</time>
      </trkpt>
      <trkpt lat="45.12013" lon="6.40503">
        <ele>1965</ele>
        <time>2022-03-24T12:32:11Z</time>
      </trkpt>
      <trkpt lat="45.1201" lon="6.40509">
        <ele>1964</ele>
        <time>2022-03-24T12:32:12Z</time>
      </trkpt>
      <trkpt lat="45.12009" lon="6.40517">
        <ele>1963</ele>
        <time>2022-03-24T12:32:13Z</time>
      </trkpt>
      <trkpt lat="45.12011" lon="6.40525">
        <ele>1962</ele>
        <time>2022-03-24T12:32:14Z</time>
      </trkpt>
      <trkpt lat="45.12021" lon="6.40536">
        <ele>1961</ele>
        <time>2022-03-24T12:32:16Z</time>
      </trkpt>
      <trkpt lat="45.12042" lon="6.40568">
        <ele>1958</ele>
        <time>2022-03-24T12:32:22Z</time>
      </trkpt>
      <trkpt lat="45.12047" lon="6.4058">
        <ele>1957</ele>
        <time>2022-03-24T12:32:24Z</time>
      </trkpt>
      <trkpt lat="45.12052" lon="6.40621">
        <ele>1952</ele>
        <time>2022-03-24T12:32:31Z</time>
      </trkpt>
      <trkpt lat="45.12051" lon="6.40639">
        <ele>1949</ele>
        <time>2022-03-24T12:32:35Z</time>
      </trkpt>
      <trkpt lat="45.12053" lon="6.40666">
        <ele>1947</ele>
        <time>2022-03-24T12:32:41Z</time>
      </trkpt>
      <trkpt lat="45.12049" lon="6.40668">
        <ele>1945</ele>
        <time>2022-03-24T12:33:01Z</time>
      </trkpt>
      <trkpt lat="45.12045" lon="6.40666">
        <ele>1944</ele>
        <time>2022-03-24T12:33:03Z</time>
      </trkpt>
      <trkpt lat="45.12041" lon="6.40657">
        <ele>1944</ele>
        <time>2022-03-24T12:33:06Z</time>
      </trkpt>
      <trkpt lat="45.12027" lon="6.40637">
        <ele>1942</ele>
        <time>2022-03-24T12:33:34Z</time>
      </trkpt>
      <trkpt lat="45.12022" lon="6.40638">
        <ele>1942</ele>
        <time>2022-03-24T12:33:36Z</time>
      </trkpt>
      <trkpt lat="45.12018" lon="6.40649">
        <ele>1942</ele>
        <time>2022-03-24T12:33:38Z</time>
      </trkpt>
      <trkpt lat="45.12015" lon="6.40655">
        <ele>1942</ele>
        <time>2022-03-24T12:33:39Z</time>
      </trkpt>
      <trkpt lat="45.12012" lon="6.40658">
        <ele>1942</ele>
        <time>2022-03-24T12:33:40Z</time>
      </trkpt>
      <trkpt lat="45.12008" lon="6.40657">
        <ele>1941</ele>
        <time>2022-03-24T12:33:41Z</time>
      </trkpt>
      <trkpt lat="45.12006" lon="6.40654">
        <ele>1941</ele>
        <time>2022-03-24T12:33:42Z</time>
      </trkpt>
      <trkpt lat="45.12002" lon="6.40651">
        <ele>1940</ele>
        <time>2022-03-24T12:33:43Z</time>
      </trkpt>
      <trkpt lat="45.11999" lon="6.40652">
        <ele>1940</ele>
        <time>2022-03-24T12:33:44Z</time>
      </trkpt>
      <trkpt lat="45.11993" lon="6.40659">
        <ele>1940</ele>
        <time>2022-03-24T12:33:46Z</time>
      </trkpt>
      <trkpt lat="45.11989" lon="6.40663">
        <ele>1939</ele>
        <time>2022-03-24T12:33:47Z</time>
      </trkpt>
      <trkpt lat="45.11985" lon="6.40663">
        <ele>1939</ele>
        <time>2022-03-24T12:33:48Z</time>
      </trkpt>
      <trkpt lat="45.11982" lon="6.40658">
        <ele>1938</ele>
        <time>2022-03-24T12:33:49Z</time>
      </trkpt>
      <trkpt lat="45.11977" lon="6.4064">
        <ele>1937</ele>
        <time>2022-03-24T12:33:51Z</time>
      </trkpt>
      <trkpt lat="45.11973" lon="6.40633">
        <ele>1936</ele>
        <time>2022-03-24T12:33:52Z</time>
      </trkpt>
      <trkpt lat="45.11968" lon="6.40629">
        <ele>1936</ele>
        <time>2022-03-24T12:33:53Z</time>
      </trkpt>
      <trkpt lat="45.11963" lon="6.40627">
        <ele>1936</ele>
        <time>2022-03-24T12:33:54Z</time>
      </trkpt>
      <trkpt lat="45.1195" lon="6.40629">
        <ele>1934</ele>
        <time>2022-03-24T12:33:57Z</time>
      </trkpt>
      <trkpt lat="45.11939" lon="6.40629">
        <ele>1932</ele>
        <time>2022-03-24T12:34:00Z</time>
      </trkpt>
      <trkpt lat="45.11927" lon="6.40629">
        <ele>1930</ele>
        <time>2022-03-24T12:34:03Z</time>
      </trkpt>
      <trkpt lat="45.11918" lon="6.40633">
        <ele>1930</ele>
        <time>2022-03-24T12:34:05Z</time>
      </trkpt>
      <trkpt lat="45.11915" lon="6.40636">
        <ele>1929</ele>
        <time>2022-03-24T12:34:06Z</time>
      </trkpt>
      <trkpt lat="45.11915" lon="6.40641">
        <ele>1929</ele>
        <time>2022-03-24T12:34:07Z</time>
      </trkpt>
      <trkpt lat="45.11924" lon="6.40651">
        <ele>1927</ele>
        <time>2022-03-24T12:34:09Z</time>
      </trkpt>
      <trkpt lat="45.11932" lon="6.40672">
        <ele>1924</ele>
        <time>2022-03-24T12:34:12Z</time>
      </trkpt>
      <trkpt lat="45.11934" lon="6.40678">
        <ele>1923</ele>
        <time>2022-03-24T12:34:13Z</time>
      </trkpt>
      <trkpt lat="45.11931" lon="6.40712">
        <ele>1919</ele>
        <time>2022-03-24T12:34:17Z</time>
      </trkpt>
      <trkpt lat="45.11938" lon="6.40738">
        <ele>1917</ele>
        <time>2022-03-24T12:34:21Z</time>
      </trkpt>
      <trkpt lat="45.11936" lon="6.40743">
        <ele>1916</ele>
        <time>2022-03-24T12:34:23Z</time>
      </trkpt>
      <trkpt lat="45.11928" lon="6.40741">
        <ele>1914</ele>
        <time>2022-03-24T12:34:25Z</time>
      </trkpt>
      <trkpt lat="45.11919" lon="6.40742">
        <ele>1913</ele>
        <time>2022-03-24T12:34:27Z</time>
      </trkpt>
      <trkpt lat="45.11916" lon="6.40744">
        <ele>1913</ele>
        <time>2022-03-24T12:34:28Z</time>
      </trkpt>
      <trkpt lat="45.11913" lon="6.40748">
        <ele>1912</ele>
        <time>2022-03-24T12:34:29Z</time>
      </trkpt>
      <trkpt lat="45.11912" lon="6.40753">
        <ele>1912</ele>
        <time>2022-03-24T12:34:30Z</time>
      </trkpt>
      <trkpt lat="45.11916" lon="6.40763">
        <ele>1909</ele>
        <time>2022-03-24T12:34:35Z</time>
      </trkpt>
      <trkpt lat="45.11915" lon="6.40767">
        <ele>1908</ele>
        <time>2022-03-24T12:34:52Z</time>
      </trkpt>
      <trkpt lat="45.11914" lon="6.40774">
        <ele>1907</ele>
        <time>2022-03-24T12:34:54Z</time>
      </trkpt>
      <trkpt lat="45.11913" lon="6.40779">
        <ele>1907</ele>
        <time>2022-03-24T12:34:55Z</time>
      </trkpt>
      <trkpt lat="45.11914" lon="6.40783">
        <ele>1907</ele>
        <time>2022-03-24T12:34:56Z</time>
      </trkpt>
      <trkpt lat="45.11916" lon="6.40791">
        <ele>1906</ele>
        <time>2022-03-24T12:34:58Z</time>
      </trkpt>
      <trkpt lat="45.11913" lon="6.40796">
        <ele>1905</ele>
        <time>2022-03-24T12:35:00Z</time>
      </trkpt>
      <trkpt lat="45.11909" lon="6.40798">
        <ele>1905</ele>
        <time>2022-03-24T12:35:01Z</time>
      </trkpt>
      <trkpt lat="45.11905" lon="6.40799">
        <ele>1904</ele>
        <time>2022-03-24T12:35:02Z</time>
      </trkpt>
      <trkpt lat="45.11901" lon="6.40798">
        <ele>1903</ele>
        <time>2022-03-24T12:35:03Z</time>
      </trkpt>
      <trkpt lat="45.11897" lon="6.40797">
        <ele>1902</ele>
        <time>2022-03-24T12:35:04Z</time>
      </trkpt>
      <trkpt lat="45.11896" lon="6.40803">
        <ele>1902</ele>
        <time>2022-03-24T12:35:06Z</time>
      </trkpt>
      <trkpt lat="45.11897" lon="6.40813">
        <ele>1901</ele>
        <time>2022-03-24T12:35:08Z</time>
      </trkpt>
      <trkpt lat="45.11898" lon="6.40818">
        <ele>1901</ele>
        <time>2022-03-24T12:35:09Z</time>
      </trkpt>
      <trkpt lat="45.11901" lon="6.40822">
        <ele>1900</ele>
        <time>2022-03-24T12:35:10Z</time>
      </trkpt>
      <trkpt lat="45.11903" lon="6.40824">
        <ele>1900</ele>
        <time>2022-03-24T12:35:11Z</time>
      </trkpt>
      <trkpt lat="45.11901" lon="6.4083">
        <ele>1899</ele>
        <time>2022-03-24T12:35:13Z</time>
      </trkpt>
      <trkpt lat="45.11897" lon="6.40832">
        <ele>1898</ele>
        <time>2022-03-24T12:35:14Z</time>
      </trkpt>
      <trkpt lat="45.11895" lon="6.40835">
        <ele>1897</ele>
        <time>2022-03-24T12:35:15Z</time>
      </trkpt>
      <trkpt lat="45.11894" lon="6.40844">
        <ele>1896</ele>
        <time>2022-03-24T12:35:17Z</time>
      </trkpt>
      <trkpt lat="45.11888" lon="6.40853">
        <ele>1896</ele>
        <time>2022-03-24T12:35:20Z</time>
      </trkpt>
      <trkpt lat="45.11887" lon="6.40863">
        <ele>1896</ele>
        <time>2022-03-24T12:35:22Z</time>
      </trkpt>
      <trkpt lat="45.11882" lon="6.40871">
        <ele>1896</ele>
        <time>2022-03-24T12:35:24Z</time>
      </trkpt>
      <trkpt lat="45.11882" lon="6.40878">
        <ele>1896</ele>
        <time>2022-03-24T12:35:25Z</time>
      </trkpt>
      <trkpt lat="45.11885" lon="6.40882">
        <ele>1896</ele>
        <time>2022-03-24T12:35:26Z</time>
      </trkpt>
      <trkpt lat="45.11897" lon="6.40894">
        <ele>1896</ele>
        <time>2022-03-24T12:35:31Z</time>
      </trkpt>
      <trkpt lat="45.11908" lon="6.40909">
        <ele>1893</ele>
        <time>2022-03-24T12:35:34Z</time>
      </trkpt>
      <trkpt lat="45.11911" lon="6.40915">
        <ele>1891</ele>
        <time>2022-03-24T12:35:36Z</time>
      </trkpt>
      <trkpt lat="45.11912" lon="6.4092">
        <ele>1890</ele>
        <time>2022-03-24T12:35:37Z</time>
      </trkpt>
      <trkpt lat="45.11909" lon="6.40957">
        <ele>1881</ele>
        <time>2022-03-24T12:35:42Z</time>
      </trkpt>
      <trkpt lat="45.11908" lon="6.40961">
        <ele>1880</ele>
        <time>2022-03-24T12:35:43Z</time>
      </trkpt>
      <trkpt lat="45.11899" lon="6.40974">
        <ele>1876</ele>
        <time>2022-03-24T12:36:00Z</time>
      </trkpt>
      <trkpt lat="45.11901" lon="6.41022">
        <ele>1873</ele>
        <time>2022-03-24T12:36:30Z</time>
      </trkpt>
      <trkpt lat="45.11898" lon="6.41023">
        <ele>1873</ele>
        <time>2022-03-24T12:36:31Z</time>
      </trkpt>
      <trkpt lat="45.11895" lon="6.41023">
        <ele>1873</ele>
        <time>2022-03-24T12:36:32Z</time>
      </trkpt>
      <trkpt lat="45.11893" lon="6.41026">
        <ele>1873</ele>
        <time>2022-03-24T12:36:33Z</time>
      </trkpt>
      <trkpt lat="45.11894" lon="6.41034">
        <ele>1873</ele>
        <time>2022-03-24T12:36:35Z</time>
      </trkpt>
      <trkpt lat="45.11892" lon="6.41039">
        <ele>1872</ele>
        <time>2022-03-24T12:36:37Z</time>
      </trkpt>
      <trkpt lat="45.11886" lon="6.41039">
        <ele>1871</ele>
        <time>2022-03-24T12:36:39Z</time>
      </trkpt>
      <trkpt lat="45.11883" lon="6.4105">
        <ele>1871</ele>
        <time>2022-03-24T12:36:42Z</time>
      </trkpt>
      <trkpt lat="45.1188" lon="6.41052">
        <ele>1871</ele>
        <time>2022-03-24T12:36:43Z</time>
      </trkpt>
      <trkpt lat="45.11877" lon="6.41053">
        <ele>1870</ele>
        <time>2022-03-24T12:36:44Z</time>
      </trkpt>
      <trkpt lat="45.11878" lon="6.41058">
        <ele>1867</ele>
        <time>2022-03-24T12:36:46Z</time>
      </trkpt>
      <trkpt lat="45.11879" lon="6.41062">
        <ele>1867</ele>
        <time>2022-03-24T12:36:47Z</time>
      </trkpt>
      <trkpt lat="45.11879" lon="6.41067">
        <ele>1865</ele>
        <time>2022-03-24T12:36:49Z</time>
      </trkpt>
      <trkpt lat="45.11875" lon="6.41068">
        <ele>1865</ele>
        <time>2022-03-24T12:36:50Z</time>
      </trkpt>
      <trkpt lat="45.11875" lon="6.41075">
        <ele>1864</ele>
        <time>2022-03-24T12:36:52Z</time>
      </trkpt>
      <trkpt lat="45.11877" lon="6.41081">
        <ele>1863</ele>
        <time>2022-03-24T12:36:54Z</time>
      </trkpt>
      <trkpt lat="45.11876" lon="6.41087">
        <ele>1863</ele>
        <time>2022-03-24T12:36:56Z</time>
      </trkpt>
      <trkpt lat="45.11875" lon="6.41091">
        <ele>1862</ele>
        <time>2022-03-24T12:36:57Z</time>
      </trkpt>
      <trkpt lat="45.11873" lon="6.41095">
        <ele>1862</ele>
        <time>2022-03-24T12:36:58Z</time>
      </trkpt>
      <trkpt lat="45.11872" lon="6.41099">
        <ele>1861</ele>
        <time>2022-03-24T12:36:59Z</time>
      </trkpt>
      <trkpt lat="45.11871" lon="6.41103">
        <ele>1861</ele>
        <time>2022-03-24T12:37:01Z</time>
      </trkpt>
      <trkpt lat="45.11875" lon="6.41112">
        <ele>1856</ele>
        <time>2022-03-24T12:37:13Z</time>
      </trkpt>
      <trkpt lat="45.11873" lon="6.41116">
        <ele>1854</ele>
        <time>2022-03-24T12:37:14Z</time>
      </trkpt>
      <trkpt lat="45.11872" lon="6.41124">
        <ele>1853</ele>
        <time>2022-03-24T12:37:16Z</time>
      </trkpt>
      <trkpt lat="45.11872" lon="6.41129">
        <ele>1853</ele>
        <time>2022-03-24T12:37:17Z</time>
      </trkpt>
      <trkpt lat="45.11874" lon="6.41135">
        <ele>1853</ele>
        <time>2022-03-24T12:37:18Z</time>
      </trkpt>
      <trkpt lat="45.11877" lon="6.41137">
        <ele>1853</ele>
        <time>2022-03-24T12:37:19Z</time>
      </trkpt>
      <trkpt lat="45.11879" lon="6.41144">
        <ele>1852</ele>
        <time>2022-03-24T12:37:22Z</time>
      </trkpt>
      <trkpt lat="45.11893" lon="6.4115">
        <ele>1851</ele>
        <time>2022-03-24T12:37:27Z</time>
      </trkpt>
      <trkpt lat="45.11895" lon="6.41151">
        <ele>1851</ele>
        <time>2022-03-24T12:37:28Z</time>
      </trkpt>
      <trkpt lat="45.119" lon="6.41154">
        <ele>1851</ele>
        <time>2022-03-24T12:37:30Z</time>
      </trkpt>
      <trkpt lat="45.11901" lon="6.41159">
        <ele>1850</ele>
        <time>2022-03-24T12:37:32Z</time>
      </trkpt>
      <trkpt lat="45.11898" lon="6.41166">
        <ele>1849</ele>
        <time>2022-03-24T12:37:34Z</time>
      </trkpt>
      <trkpt lat="45.11899" lon="6.41169">
        <ele>1848</ele>
        <time>2022-03-24T12:37:35Z</time>
      </trkpt>
      <trkpt lat="45.11914" lon="6.41186">
        <ele>1847</ele>
        <time>2022-03-24T12:37:40Z</time>
      </trkpt>
      <trkpt lat="45.1191" lon="6.41189">
        <ele>1846</ele>
        <time>2022-03-24T12:37:42Z</time>
      </trkpt>
      <trkpt lat="45.11907" lon="6.41188">
        <ele>1846</ele>
        <time>2022-03-24T12:37:43Z</time>
      </trkpt>
      <trkpt lat="45.11904" lon="6.41189">
        <ele>1845</ele>
        <time>2022-03-24T12:37:44Z</time>
      </trkpt>
      <trkpt lat="45.11897" lon="6.4119">
        <ele>1845</ele>
        <time>2022-03-24T12:37:46Z</time>
      </trkpt>
      <trkpt lat="45.11894" lon="6.41188">
        <ele>1844</ele>
        <time>2022-03-24T12:37:47Z</time>
      </trkpt>
      <trkpt lat="45.11891" lon="6.41192">
        <ele>1844</ele>
        <time>2022-03-24T12:37:49Z</time>
      </trkpt>
      <trkpt lat="45.11891" lon="6.41197">
        <ele>1844</ele>
        <time>2022-03-24T12:37:51Z</time>
      </trkpt>
      <trkpt lat="45.11887" lon="6.41199">
        <ele>1843</ele>
        <time>2022-03-24T12:37:52Z</time>
      </trkpt>
      <trkpt lat="45.11883" lon="6.412">
        <ele>1843</ele>
        <time>2022-03-24T12:37:53Z</time>
      </trkpt>
      <trkpt lat="45.11878" lon="6.41199">
        <ele>1842</ele>
        <time>2022-03-24T12:37:55Z</time>
      </trkpt>
      <trkpt lat="45.11874" lon="6.41199">
        <ele>1840</ele>
        <time>2022-03-24T12:37:58Z</time>
      </trkpt>
      <trkpt lat="45.11869" lon="6.41201">
        <ele>1838</ele>
        <time>2022-03-24T12:38:00Z</time>
      </trkpt>
      <trkpt lat="45.1187" lon="6.41206">
        <ele>1838</ele>
        <time>2022-03-24T12:38:02Z</time>
      </trkpt>
      <trkpt lat="45.11877" lon="6.41211">
        <ele>1836</ele>
        <time>2022-03-24T12:38:18Z</time>
      </trkpt>
      <trkpt lat="45.1188" lon="6.41217">
        <ele>1835</ele>
        <time>2022-03-24T12:38:20Z</time>
      </trkpt>
      <trkpt lat="45.11875" lon="6.41218">
        <ele>1833</ele>
        <time>2022-03-24T12:38:36Z</time>
      </trkpt>
      <trkpt lat="45.11862" lon="6.41219">
        <ele>1828</ele>
        <time>2022-03-24T12:38:43Z</time>
      </trkpt>
      <trkpt lat="45.11855" lon="6.41215">
        <ele>1826</ele>
        <time>2022-03-24T12:38:49Z</time>
      </trkpt>
      <trkpt lat="45.11852" lon="6.41216">
        <ele>1824</ele>
        <time>2022-03-24T12:38:52Z</time>
      </trkpt>
      <trkpt lat="45.11847" lon="6.41217">
        <ele>1824</ele>
        <time>2022-03-24T12:38:56Z</time>
      </trkpt>
      <trkpt lat="45.11843" lon="6.41218">
        <ele>1823</ele>
        <time>2022-03-24T12:39:00Z</time>
      </trkpt>
      <trkpt lat="45.1184" lon="6.41221">
        <ele>1822</ele>
        <time>2022-03-24T12:39:06Z</time>
      </trkpt>
      <trkpt lat="45.1184" lon="6.41226">
        <ele>1818</ele>
        <time>2022-03-24T12:39:16Z</time>
      </trkpt>
      <trkpt lat="45.11844" lon="6.41231">
        <ele>1817</ele>
        <time>2022-03-24T12:39:19Z</time>
      </trkpt>
      <trkpt lat="45.11847" lon="6.41235">
        <ele>1815</ele>
        <time>2022-03-24T12:39:26Z</time>
      </trkpt>
      <trkpt lat="45.11855" lon="6.41243">
        <ele>1812</ele>
        <time>2022-03-24T12:39:43Z</time>
      </trkpt>
      <trkpt lat="45.11882" lon="6.41262">
        <ele>1806</ele>
        <time>2022-03-24T12:39:59Z</time>
      </trkpt>
      <trkpt lat="45.11876" lon="6.41263">
        <ele>1804</ele>
        <time>2022-03-24T12:40:09Z</time>
      </trkpt>
      <trkpt lat="45.11879" lon="6.41271">
        <ele>1804</ele>
        <time>2022-03-24T12:40:11Z</time>
      </trkpt>
      <trkpt lat="45.11884" lon="6.41273">
        <ele>1804</ele>
        <time>2022-03-24T12:40:13Z</time>
      </trkpt>
      <trkpt lat="45.11882" lon="6.4128">
        <ele>1803</ele>
        <time>2022-03-24T12:40:19Z</time>
      </trkpt>
      <trkpt lat="45.11876" lon="6.41282">
        <ele>1802</ele>
        <time>2022-03-24T12:40:23Z</time>
      </trkpt>
      <trkpt lat="45.11874" lon="6.41286">
        <ele>1802</ele>
        <time>2022-03-24T12:40:26Z</time>
      </trkpt>
      <trkpt lat="45.11876" lon="6.4129">
        <ele>1802</ele>
        <time>2022-03-24T12:40:29Z</time>
      </trkpt>
      <trkpt lat="45.11879" lon="6.41296">
        <ele>1802</ele>
        <time>2022-03-24T12:42:39Z</time>
      </trkpt>
      <trkpt lat="45.11883" lon="6.41303">
        <ele>1801</ele>
        <time>2022-03-24T12:42:42Z</time>
      </trkpt>
      <trkpt lat="45.11888" lon="6.41305">
        <ele>1801</ele>
        <time>2022-03-24T12:42:44Z</time>
      </trkpt>
      <trkpt lat="45.11896" lon="6.41311">
        <ele>1799</ele>
        <time>2022-03-24T12:42:48Z</time>
      </trkpt>
      <trkpt lat="45.119" lon="6.41314">
        <ele>1795</ele>
        <time>2022-03-24T12:42:50Z</time>
      </trkpt>
      <trkpt lat="45.11898" lon="6.41319">
        <ele>1785</ele>
        <time>2022-03-24T12:43:28Z</time>
      </trkpt>
      <trkpt lat="45.11901" lon="6.41322">
        <ele>1783</ele>
        <time>2022-03-24T12:43:36Z</time>
      </trkpt>
      <trkpt lat="45.11908" lon="6.41327">
        <ele>1775</ele>
        <time>2022-03-24T12:43:38Z</time>
      </trkpt>
      <trkpt lat="45.11909" lon="6.41332">
        <ele>1771</ele>
        <time>2022-03-24T12:45:13Z</time>
      </trkpt>
      <trkpt lat="45.11914" lon="6.41334">
        <ele>1771</ele>
        <time>2022-03-24T12:45:18Z</time>
      </trkpt>
      <trkpt lat="45.11922" lon="6.41341">
        <ele>1771</ele>
        <time>2022-03-24T12:45:33Z</time>
      </trkpt>
      <trkpt lat="45.11936" lon="6.41347">
        <ele>1770</ele>
        <time>2022-03-24T12:45:55Z</time>
      </trkpt>
      <trkpt lat="45.11934" lon="6.41352">
        <ele>1770</ele>
        <time>2022-03-24T12:45:57Z</time>
      </trkpt>
      <trkpt lat="45.11951" lon="6.41365">
        <ele>1767</ele>
        <time>2022-03-24T12:46:30Z</time>
      </trkpt>
      <trkpt lat="45.11953" lon="6.41372">
        <ele>1767</ele>
        <time>2022-03-24T12:46:34Z</time>
      </trkpt>
      <trkpt lat="45.11943" lon="6.41373">
        <ele>1767</ele>
        <time>2022-03-24T12:46:48Z</time>
      </trkpt>
      <trkpt lat="45.11943" lon="6.4138">
        <ele>1766</ele>
        <time>2022-03-24T12:46:53Z</time>
      </trkpt>
      <trkpt lat="45.11942" lon="6.41387">
        <ele>1764</ele>
        <time>2022-03-24T12:47:00Z</time>
      </trkpt>
      <trkpt lat="45.11938" lon="6.4139">
        <ele>1764</ele>
        <time>2022-03-24T12:47:03Z</time>
      </trkpt>
      <trkpt lat="45.1194" lon="6.41395">
        <ele>1764</ele>
        <time>2022-03-24T12:47:07Z</time>
      </trkpt>
      <trkpt lat="45.11936" lon="6.41394">
        <ele>1759</ele>
        <time>2022-03-24T12:47:25Z</time>
      </trkpt>
      <trkpt lat="45.11932" lon="6.41394">
        <ele>1756</ele>
        <time>2022-03-24T12:47:29Z</time>
      </trkpt>
      <trkpt lat="45.11921" lon="6.41397">
        <ele>1753</ele>
        <time>2022-03-24T12:47:39Z</time>
      </trkpt>
      <trkpt lat="45.11919" lon="6.41395">
        <ele>1751</ele>
        <time>2022-03-24T12:48:29Z</time>
      </trkpt>
      <trkpt lat="45.11917" lon="6.41397">
        <ele>1754</ele>
        <time>2022-03-24T12:50:27Z</time>
      </trkpt>
      <trkpt lat="45.11911" lon="6.41399">
        <ele>1753</ele>
        <time>2022-03-24T12:50:32Z</time>
      </trkpt>
      <trkpt lat="45.11906" lon="6.414">
        <ele>1753</ele>
        <time>2022-03-24T12:50:36Z</time>
      </trkpt>
      <trkpt lat="45.119" lon="6.41401">
        <ele>1752</ele>
        <time>2022-03-24T12:50:39Z</time>
      </trkpt>
      <trkpt lat="45.11896" lon="6.41402">
        <ele>1752</ele>
        <time>2022-03-24T12:50:43Z</time>
      </trkpt>
      <trkpt lat="45.11891" lon="6.41403">
        <ele>1752</ele>
        <time>2022-03-24T12:50:47Z</time>
      </trkpt>
      <trkpt lat="45.11886" lon="6.41405">
        <ele>1751</ele>
        <time>2022-03-24T12:50:49Z</time>
      </trkpt>
      <trkpt lat="45.11878" lon="6.41409">
        <ele>1748</ele>
        <time>2022-03-24T12:50:51Z</time>
      </trkpt>
      <trkpt lat="45.11879" lon="6.41414">
        <ele>1747</ele>
        <time>2022-03-24T12:50:52Z</time>
      </trkpt>
      <trkpt lat="45.11882" lon="6.41418">
        <ele>1746</ele>
        <time>2022-03-24T12:50:53Z</time>
      </trkpt>
      <trkpt lat="45.11887" lon="6.4142">
        <ele>1745</ele>
        <time>2022-03-24T12:50:54Z</time>
      </trkpt>
      <trkpt lat="45.11893" lon="6.41426">
        <ele>1745</ele>
        <time>2022-03-24T12:50:56Z</time>
      </trkpt>
      <trkpt lat="45.119" lon="6.41432">
        <ele>1744</ele>
        <time>2022-03-24T12:50:58Z</time>
      </trkpt>
      <trkpt lat="45.11913" lon="6.41438">
        <ele>1742</ele>
        <time>2022-03-24T12:51:02Z</time>
      </trkpt>
      <trkpt lat="45.11908" lon="6.41435">
        <ele>1739</ele>
        <time>2022-03-24T12:51:14Z</time>
      </trkpt>
      <trkpt lat="45.11903" lon="6.41438">
        <ele>1735</ele>
        <time>2022-03-24T12:51:51Z</time>
      </trkpt>
      <trkpt lat="45.11897" lon="6.41443">
        <ele>1733</ele>
        <time>2022-03-24T12:51:53Z</time>
      </trkpt>
      <trkpt lat="45.119" lon="6.41448">
        <ele>1733</ele>
        <time>2022-03-24T12:51:56Z</time>
      </trkpt>
      <trkpt lat="45.11912" lon="6.41457">
        <ele>1730</ele>
        <time>2022-03-24T12:52:13Z</time>
      </trkpt>
      <trkpt lat="45.11917" lon="6.41457">
        <ele>1730</ele>
        <time>2022-03-24T12:52:14Z</time>
      </trkpt>
      <trkpt lat="45.11923" lon="6.41462">
        <ele>1729</ele>
        <time>2022-03-24T12:52:16Z</time>
      </trkpt>
      <trkpt lat="45.11919" lon="6.41469">
        <ele>1729</ele>
        <time>2022-03-24T12:52:18Z</time>
      </trkpt>
      <trkpt lat="45.11916" lon="6.41473">
        <ele>1728</ele>
        <time>2022-03-24T12:52:20Z</time>
      </trkpt>
      <trkpt lat="45.11919" lon="6.41477">
        <ele>1728</ele>
        <time>2022-03-24T12:52:32Z</time>
      </trkpt>
      <trkpt lat="45.11922" lon="6.41485">
        <ele>1728</ele>
        <time>2022-03-24T12:52:35Z</time>
      </trkpt>
      <trkpt lat="45.11924" lon="6.41492">
        <ele>1728</ele>
        <time>2022-03-24T12:52:37Z</time>
      </trkpt>
      <trkpt lat="45.1193" lon="6.41493">
        <ele>1726</ele>
        <time>2022-03-24T12:52:40Z</time>
      </trkpt>
      <trkpt lat="45.11936" lon="6.41493">
        <ele>1725</ele>
        <time>2022-03-24T12:52:44Z</time>
      </trkpt>
      <trkpt lat="45.1194" lon="6.41492">
        <ele>1724</ele>
        <time>2022-03-24T12:52:51Z</time>
      </trkpt>
      <trkpt lat="45.11946" lon="6.41496">
        <ele>1722</ele>
        <time>2022-03-24T12:52:55Z</time>
      </trkpt>
      <trkpt lat="45.11949" lon="6.41503">
        <ele>1721</ele>
        <time>2022-03-24T12:52:57Z</time>
      </trkpt>
      <trkpt lat="45.11955" lon="6.41507">
        <ele>1720</ele>
        <time>2022-03-24T12:53:00Z</time>
      </trkpt>
      <trkpt lat="45.11959" lon="6.4151">
        <ele>1719</ele>
        <time>2022-03-24T12:53:01Z</time>
      </trkpt>
      <trkpt lat="45.11959" lon="6.41528">
        <ele>1720</ele>
        <time>2022-03-24T12:53:05Z</time>
      </trkpt>
      <trkpt lat="45.11957" lon="6.41538">
        <ele>1720</ele>
        <time>2022-03-24T12:53:07Z</time>
      </trkpt>
      <trkpt lat="45.1195" lon="6.41542">
        <ele>1720</ele>
        <time>2022-03-24T12:53:09Z</time>
      </trkpt>
      <trkpt lat="45.11942" lon="6.4155">
        <ele>1719</ele>
        <time>2022-03-24T12:53:16Z</time>
      </trkpt>
      <trkpt lat="45.11943" lon="6.41557">
        <ele>1705</ele>
        <time>2022-03-24T12:54:31Z</time>
      </trkpt>
      <trkpt lat="45.11938" lon="6.4156">
        <ele>1704</ele>
        <time>2022-03-24T12:54:38Z</time>
      </trkpt>
      <trkpt lat="45.11936" lon="6.41566">
        <ele>1702</ele>
        <time>2022-03-24T12:54:47Z</time>
      </trkpt>
      <trkpt lat="45.11937" lon="6.41574">
        <ele>1701</ele>
        <time>2022-03-24T12:54:52Z</time>
      </trkpt>
      <trkpt lat="45.11941" lon="6.41586">
        <ele>1699</ele>
        <time>2022-03-24T12:55:02Z</time>
      </trkpt>
      <trkpt lat="45.11943" lon="6.41595">
        <ele>1698</ele>
        <time>2022-03-24T12:55:04Z</time>
      </trkpt>
      <trkpt lat="45.11947" lon="6.41603">
        <ele>1698</ele>
        <time>2022-03-24T12:55:06Z</time>
      </trkpt>
      <trkpt lat="45.11957" lon="6.41639">
        <ele>1696</ele>
        <time>2022-03-24T12:55:12Z</time>
      </trkpt>
      <trkpt lat="45.11957" lon="6.41645">
        <ele>1696</ele>
        <time>2022-03-24T12:55:13Z</time>
      </trkpt>
      <trkpt lat="45.11957" lon="6.41653">
        <ele>1696</ele>
        <time>2022-03-24T12:55:15Z</time>
      </trkpt>
      <trkpt lat="45.1195" lon="6.41671">
        <ele>1695</ele>
        <time>2022-03-24T12:55:19Z</time>
      </trkpt>
      <trkpt lat="45.11944" lon="6.41684">
        <ele>1695</ele>
        <time>2022-03-24T12:55:20Z</time>
      </trkpt>
      <trkpt lat="45.1194" lon="6.41683">
        <ele>1695</ele>
        <time>2022-03-24T12:55:23Z</time>
      </trkpt>
      <trkpt lat="45.11933" lon="6.41688">
        <ele>1694</ele>
        <time>2022-03-24T12:55:39Z</time>
      </trkpt>
      <trkpt lat="45.11926" lon="6.41691">
        <ele>1694</ele>
        <time>2022-03-24T12:55:54Z</time>
      </trkpt>
      <trkpt lat="45.11919" lon="6.41694">
        <ele>1696</ele>
        <time>2022-03-24T12:56:01Z</time>
      </trkpt>
      <trkpt lat="45.11916" lon="6.41698">
        <ele>1696</ele>
        <time>2022-03-24T12:56:04Z</time>
      </trkpt>
      <trkpt lat="45.11896" lon="6.41723">
        <ele>1697</ele>
        <time>2022-03-24T12:56:18Z</time>
      </trkpt>
      <trkpt lat="45.11896" lon="6.41728">
        <ele>1697</ele>
        <time>2022-03-24T12:56:23Z</time>
      </trkpt>
      <trkpt lat="45.11898" lon="6.4174">
        <ele>1695</ele>
        <time>2022-03-24T12:56:44Z</time>
      </trkpt>
      <trkpt lat="45.119" lon="6.41744">
        <ele>1693</ele>
        <time>2022-03-24T12:56:49Z</time>
      </trkpt>
      <trkpt lat="45.11903" lon="6.4175">
        <ele>1691</ele>
        <time>2022-03-24T12:57:02Z</time>
      </trkpt>
      <trkpt lat="45.11905" lon="6.41756">
        <ele>1691</ele>
        <time>2022-03-24T12:57:05Z</time>
      </trkpt>
      <trkpt lat="45.11909" lon="6.41755">
        <ele>1691</ele>
        <time>2022-03-24T12:57:15Z</time>
      </trkpt>
      <trkpt lat="45.1191" lon="6.4175">
        <ele>1692</ele>
        <time>2022-03-24T12:57:21Z</time>
      </trkpt>
      <trkpt lat="45.11913" lon="6.41745">
        <ele>1691</ele>
        <time>2022-03-24T12:57:36Z</time>
      </trkpt>
      <trkpt lat="45.11914" lon="6.41756">
        <ele>1691</ele>
        <time>2022-03-24T12:57:45Z</time>
      </trkpt>
      <trkpt lat="45.11918" lon="6.41753">
        <ele>1691</ele>
        <time>2022-03-24T12:58:00Z</time>
      </trkpt>
      <trkpt lat="45.11921" lon="6.41751">
        <ele>1691</ele>
        <time>2022-03-24T12:58:01Z</time>
      </trkpt>
      <trkpt lat="45.11925" lon="6.4175">
        <ele>1691</ele>
        <time>2022-03-24T12:58:04Z</time>
      </trkpt>
      <trkpt lat="45.11927" lon="6.41746">
        <ele>1690</ele>
        <time>2022-03-24T12:58:10Z</time>
      </trkpt>
      <trkpt lat="45.11934" lon="6.41738">
        <ele>1689</ele>
        <time>2022-03-24T12:58:15Z</time>
      </trkpt>
      <trkpt lat="45.11937" lon="6.41735">
        <ele>1689</ele>
        <time>2022-03-24T12:58:16Z</time>
      </trkpt>
      <trkpt lat="45.11946" lon="6.41732">
        <ele>1689</ele>
        <time>2022-03-24T12:58:18Z</time>
      </trkpt>
      <trkpt lat="45.12007" lon="6.41751">
        <ele>1685</ele>
        <time>2022-03-24T12:58:29Z</time>
      </trkpt>
      <trkpt lat="45.12062" lon="6.41754">
        <ele>1681</ele>
        <time>2022-03-24T12:58:37Z</time>
      </trkpt>
      <trkpt lat="45.12069" lon="6.41756">
        <ele>1681</ele>
        <time>2022-03-24T12:58:48Z</time>
      </trkpt>
      <trkpt lat="45.12083" lon="6.41763">
        <ele>1681</ele>
        <time>2022-03-24T12:58:58Z</time>
      </trkpt>
      <trkpt lat="45.12086" lon="6.41765">
        <ele>1681</ele>
        <time>2022-03-24T12:59:00Z</time>
      </trkpt>
      <trkpt lat="45.12092" lon="6.41767">
        <ele>1681</ele>
        <time>2022-03-24T13:00:08Z</time>
      </trkpt>
      <trkpt lat="45.12095" lon="6.4177">
        <ele>1681</ele>
        <time>2022-03-24T13:00:11Z</time>
      </trkpt>
      <trkpt lat="45.12111" lon="6.41773">
        <ele>1680</ele>
        <time>2022-03-24T13:00:21Z</time>
      </trkpt>
      <trkpt lat="45.1212" lon="6.41769">
        <ele>1679</ele>
        <time>2022-03-24T13:00:28Z</time>
      </trkpt>
      <trkpt lat="45.12124" lon="6.4177">
        <ele>1679</ele>
        <time>2022-03-24T13:00:31Z</time>
      </trkpt>
      <trkpt lat="45.12138" lon="6.41767">
        <ele>1678</ele>
        <time>2022-03-24T13:00:43Z</time>
      </trkpt>
    </trkseg>
  </trk>
</gpx>